Observation data for Boys Ranch on 11/14/2019      Previous  Date  Next       Current Mesonet Observations  Soil Data  Daily Summary Page  Observations in Plain Language
KBY1 140600Z 35003KT 03/M05 A3019 RMK A01 T00261047  RH  059%=      5-min Rain = 0
KBY1 140601Z 33002KT 03/M05 A3019 RMK A01 T00281047  RH  058%=      5-min Rain = 0
KBY1 140602Z 31002KT 03/M05 A3019 RMK A01 T00281048  RH  057%=      5-min Rain = 0
KBY1 140603Z 28001KT 03/M05 A3019 RMK A01 T00271051  RH  056%=      5-min Rain = 0
KBY1 140604Z 25001KT 02/M06 A3019 RMK A01 T00221057  RH  056%=      5-min Rain = 0
KBY1 140605Z 26003KT 02/M06 A3019 RMK A01 T00191058  RH  057%=      5-min Rain = 0
KBY1 140606Z 25003KT 02/M06 A3019 RMK A01 T00171056  RH  058%=      5-min Rain = 0
KBY1 140607Z 25003KT 02/M06 A3019 RMK A01 T00171055  RH  059%=      5-min Rain = 0
KBY1 140608Z 25003KT 02/M05 A302 RMK A01 T00171054  RH  059%=      5-min Rain = 0
KBY1 140609Z 25002KT 02/M05 A302 RMK A01 T00181054  RH  059%=      5-min Rain = 0
KBY1 140610Z 26003KT 02/M05 A302 RMK A01 T00191054  RH  058%=      5-min Rain = 0
KBY1 140611Z 28003KT 02/M05 A302 RMK A01 T00201053  RH  058%=      5-min Rain = 0
KBY1 140612Z 30003KT 02/M05 A302 RMK A01 T00211053  RH  058%=      5-min Rain = 0
KBY1 140613Z 32003KT 02/M05 A302 RMK A01 T00211053  RH  058%=      5-min Rain = 0
KBY1 140614Z 31003KT 02/M05 A302 RMK A01 T00211053  RH  058%=      5-min Rain = 0
KBY1 140615Z 31002KT 02/M05 A302 RMK A01 T00201053  RH  058%=      5-min Rain = 0
KBY1 140616Z 31003KT 02/M05 A302 RMK A01 T00191053  RH  059%=      5-min Rain = 0
KBY1 140617Z 30002KT 02/M05 A302 RMK A01 T00191054  RH  059%=      5-min Rain = 0
KBY1 140618Z 31001KT 02/M05 A302 RMK A01 T00181054  RH  059%=      5-min Rain = 0
KBY1 140619Z 28001KT 02/M05 A302 RMK A01 T00181054  RH  059%=      5-min Rain = 0
KBY1 140620Z 30001KT 02/M05 A302 RMK A01 T00171054  RH  059%=      5-min Rain = 0
KBY1 140621Z 30001KT 02/M05 A302 RMK A01 T00171054  RH  059%=      5-min Rain = 0
KBY1 140622Z 32002KT 02/M05 A302 RMK A01 T00171054  RH  059%=      5-min Rain = 0
KBY1 140623Z 34003KT 02/M06 A302 RMK A01 T00151056  RH  059%=      5-min Rain = 0
KBY1 140624Z 36002KT 01/M05 A302 RMK A01 T00141054  RH  060%=      5-min Rain = 0
KBY1 140625Z 35002KT 02/M05 A302 RMK A01 T00151054  RH  060%=      5-min Rain = 0
KBY1 140626Z 34003KT 01/M06 A302 RMK A01 T00131055  RH  060%=      5-min Rain = 0
KBY1 140627Z 35003KT 01/M05 A302 RMK A01 T00131054  RH  061%=      5-min Rain = 0
KBY1 140628Z 35003KT 01/M06 A302 RMK A01 T00121055  RH  061%=      5-min Rain = 0
KBY1 140629Z 01002KT 01/M06 A302 RMK A01 T00111055  RH  061%=      5-min Rain = 0
KBY1 140630Z 03002KT 01/M05 A302 RMK A01 T00111054  RH  062%=      5-min Rain = 0
KBY1 140631Z 00001KT 01/M05 A302 RMK A01 T00121050  RH  063%=      5-min Rain = 0
KBY1 140632Z 19002KT 01/M05 A302 RMK A01 T00131053  RH  062%=      5-min Rain = 0
KBY1 140633Z 22003KT 01/M06 A302 RMK A01 T00091058  RH  061%=      5-min Rain = 0
KBY1 140634Z 22003KT 00/M06 A302 RMK A01 T00041060  RH  062%=      5-min Rain = 0
KBY1 140635Z 23003KT 00/M06 A302 RMK A01 T00021058  RH  064%=      5-min Rain = 0
KBY1 140636Z 23002KT 00/M06 A302 RMK A01 T00011057  RH  065%=      5-min Rain = 0
KBY1 140637Z 23000KT 00/M06 A3021 RMK A01 T00011056  RH  065%=      5-min Rain = 0
KBY1 140638Z 29001KT 00/M05 A3021 RMK A01 T00021054  RH  066%=      5-min Rain = 0
KBY1 140639Z 33001KT 01/M05 A302 RMK A01 T00051051  RH  066%=      5-min Rain = 0
KBY1 140640Z 35002KT 01/M05 A302 RMK A01 T00081049  RH  066%=      5-min Rain = 0
KBY1 140641Z 00003KT 01/M05 A302 RMK A01 T00101050  RH  064%=      5-min Rain = 0
KBY1 140642Z 01003KT 01/M05 A302 RMK A01 T00101051  RH  063%=      5-min Rain = 0
KBY1 140643Z 36003KT 01/M05 A302 RMK A01 T00101052  RH  063%=      5-min Rain = 0
KBY1 140644Z 00004KT 01/M05 A3021 RMK A01 T00101050  RH  064%=      5-min Rain = 0
KBY1 140645Z 01004KT 01/M05 A3021 RMK A01 T00121048  RH  064%=      5-min Rain = 0
KBY1 140646Z 01003KT 02/M05 A3021 RMK A01 T00161045  RH  064%=      5-min Rain = 0
KBY1 140647Z 02003KT 02/M05 A3021 RMK A01 T00191045  RH  063%=      5-min Rain = 0
KBY1 140648Z 02004KT 02/M04 A3021 RMK A01 T00211044  RH  062%=      5-min Rain = 0
KBY1 140649Z 02004KT 02/M05 A3021 RMK A01 T00221045  RH  061%=      5-min Rain = 0
KBY1 140650Z 02004KT 02/M04 A3021 RMK A01 T00231044  RH  061%=      5-min Rain = 0
KBY1 140651Z 01003KT 02/M05 A3021 RMK A01 T00231045  RH  061%=      5-min Rain = 0
KBY1 140652Z 36002KT 02/M05 A3021 RMK A01 T00241045  RH  060%=      5-min Rain = 0
KBY1 140653Z 02003KT 02/M05 A3021 RMK A01 T00231048  RH  060%=      5-min Rain = 0
KBY1 140654Z 00002KT 02/M05 A3021 RMK A01 T00211049  RH  060%=      5-min Rain = 0
KBY1 140655Z 00003KT 02/M05 A3021 RMK A01 T00191051  RH  060%=      5-min Rain = 0
KBY1 140656Z 34002KT 02/M05 A3021 RMK A01 T00151053  RH  060%=      5-min Rain = 0
KBY1 140657Z 34002KT 01/M06 A3021 RMK A01 T00121055  RH  061%=      5-min Rain = 0
KBY1 140658Z 01001KT 01/M06 A3021 RMK A01 T00101056  RH  062%=      5-min Rain = 0
KBY1 140659Z 00000KT 01/M05 A3021 RMK A01 T00091052  RH  063%=      5-min Rain = 0
KBY1 140700Z 21000KT 01/M05 A3021 RMK A01 T00091053  RH  063%=      5-min Rain = 0
KBY1 140701Z 26000KT 01/M06 A3021 RMK A01 T00051058  RH  063%=      5-min Rain = 0
KBY1 140702Z 26000KT 00/M06 A3021 RMK A01 T00021059  RH  064%=      5-min Rain = 0
KBY1 140703Z 24000KT 00/06 A3021 RMK A01 T00000-57  RH  065%=      5-min Rain = 0
KBY1 140704Z 30001KT M00/M06 A3021 RMK A01 T10011057  RH  066%=      5-min Rain = 0
KBY1 140705Z 33001KT M00/M06 A3021 RMK A01 T10021056  RH  067%=      5-min Rain = 0
KBY1 140706Z 35001KT M00/M05 A3021 RMK A01 T10011053  RH  068%=      5-min Rain = 0
KBY1 140707Z 35002KT 00/M05 A3021 RMK A01 T00011051  RH  068%=      5-min Rain = 0
KBY1 140708Z 00002KT 00/M05 A3021 RMK A01 T00041049  RH  067%=      5-min Rain = 0
KBY1 140709Z 36002KT 01/M05 A3021 RMK A01 T00051051  RH  066%=      5-min Rain = 0
KBY1 140710Z 35003KT 01/M05 A3021 RMK A01 T00061051  RH  066%=      5-min Rain = 0
KBY1 140711Z 35003KT 01/M05 A3021 RMK A01 T00061052  RH  065%=      5-min Rain = 0
KBY1 140712Z 35002KT 00/M05 A3021 RMK A01 T00041053  RH  065%=      5-min Rain = 0
KBY1 140713Z 34002KT 00/M05 A3021 RMK A01 T00031053  RH  066%=      5-min Rain = 0
KBY1 140714Z 21002KT 00/M06 A3021 RMK A01 T00021055  RH  066%=      5-min Rain = 0
KBY1 140715Z 19002KT M00/M07 A3021 RMK A01 T10041065  RH  063%=      5-min Rain = 0
KBY1 140716Z 23002KT M01/M07 A3021 RMK A01 T10101067  RH  066%=      5-min Rain = 0
KBY1 140717Z 23002KT M01/M07 A3022 RMK A01 T10131065  RH  068%=      5-min Rain = 0
KBY1 140718Z 23002KT M01/M06 A3022 RMK A01 T10141062  RH  070%=      5-min Rain = 0
KBY1 140719Z 25002KT M01/M06 A3022 RMK A01 T10141060  RH  071%=      5-min Rain = 0
KBY1 140720Z 29002KT M01/M06 A3022 RMK A01 T10121057  RH  071%=      5-min Rain = 0
KBY1 140721Z 33002KT M01/M05 A3022 RMK A01 T10101054  RH  072%=      5-min Rain = 0
KBY1 140722Z 34002KT M01/M05 A3022 RMK A01 T10061050  RH  072%=      5-min Rain = 0
KBY1 140723Z 35002KT M00/M05 A3022 RMK A01 T10021048  RH  071%=      5-min Rain = 0
KBY1 140724Z 36003KT 00/05 A3022 RMK A01 T00000-50  RH  069%=      5-min Rain = 0
KBY1 140725Z 35002KT 00/M05 A3022 RMK A01 T00011051  RH  068%=      5-min Rain = 0
KBY1 140726Z 36001KT 00/M05 A3022 RMK A01 T00011051  RH  068%=      5-min Rain = 0
KBY1 140727Z 34001KT 00/M05 A3022 RMK A01 T00011051  RH  068%=      5-min Rain = 0
KBY1 140728Z 35000KT 00/M05 A3022 RMK A01 T00021050  RH  068%=      5-min Rain = 0
KBY1 140729Z 00000KT 00/M05 A3022 RMK A01 T00031049  RH  068%=      5-min Rain = 0
KBY1 140730Z 16000KT M00/M06 A3022 RMK A01 T10011062  RH  064%=      5-min Rain = 0
KBY1 140731Z 18000KT M01/M07 A3022 RMK A01 T10101068  RH  065%=      5-min Rain = 0
KBY1 140732Z 23001KT M01/M06 A3022 RMK A01 T10131063  RH  069%=      5-min Rain = 0
KBY1 140733Z 27001KT M01/M06 A3022 RMK A01 T10131059  RH  071%=      5-min Rain = 0
KBY1 140734Z 26001KT M01/M06 A3022 RMK A01 T10131058  RH  072%=      5-min Rain = 0
KBY1 140735Z 25000KT M01/M06 A3022 RMK A01 T10131056  RH  072%=      5-min Rain = 0
KBY1 140736Z 33000KT M01/M06 A3022 RMK A01 T10121055  RH  072%=      5-min Rain = 0
KBY1 140737Z 00002KT M01/M05 A3022 RMK A01 T10101053  RH  073%=      5-min Rain = 0
KBY1 140738Z 33002KT M01/M05 A3022 RMK A01 T10091054  RH  072%=      5-min Rain = 0
KBY1 140739Z 35002KT M01/M05 A3022 RMK A01 T10091054  RH  071%=      5-min Rain = 0
KBY1 140740Z 33002KT M01/M05 A3022 RMK A01 T10091054  RH  071%=      5-min Rain = 0
KBY1 140741Z 33001KT M01/M06 A3022 RMK A01 T10091055  RH  071%=      5-min Rain = 0
KBY1 140742Z 20002KT M01/M06 A3022 RMK A01 T10091056  RH  070%=      5-min Rain = 0
KBY1 140743Z 24001KT M01/M06 A3022 RMK A01 T10111057  RH  071%=      5-min Rain = 0
KBY1 140744Z 26001KT M01/M06 A3022 RMK A01 T10111055  RH  072%=      5-min Rain = 0
KBY1 140745Z 31001KT M01/M05 A3023 RMK A01 T10101054  RH  072%=      5-min Rain = 0
KBY1 140746Z 32001KT M01/M05 A3022 RMK A01 T10101053  RH  072%=      5-min Rain = 0
KBY1 140747Z 34003KT M01/M05 A3022 RMK A01 T10081051  RH  073%=      5-min Rain = 0
KBY1 140748Z 35004KT M01/M05 A3022 RMK A01 T10071050  RH  073%=      5-min Rain = 0
KBY1 140749Z 35004KT M01/M05 A3022 RMK A01 T10051047  RH  073%=      5-min Rain = 0
KBY1 140750Z 35004KT M00/M05 A3022 RMK A01 T10031046  RH  072%=      5-min Rain = 0
KBY1 140751Z 32004KT M00/M05 A3022 RMK A01 T10011046  RH  071%=      5-min Rain = 0
KBY1 140752Z 32004KT 00/05 A3023 RMK A01 T00-00-47  RH  070%=      5-min Rain = 0
KBY1 140753Z 32004KT 00/M05 A3023 RMK A01 T00011049  RH  069%=      5-min Rain = 0
KBY1 140754Z 32004KT 00/M05 A3023 RMK A01 T00011049  RH  069%=      5-min Rain = 0
KBY1 140755Z 33004KT 00/M05 A3023 RMK A01 T00011049  RH  069%=      5-min Rain = 0
KBY1 140756Z 33004KT 00/M05 A3023 RMK A01 T00021048  RH  069%=      5-min Rain = 0
KBY1 140757Z 33004KT 00/M05 A3023 RMK A01 T00021049  RH  069%=      5-min Rain = 0
KBY1 140758Z 33004KT 00/M05 A3023 RMK A01 T00021049  RH  069%=      5-min Rain = 0
KBY1 140759Z 32004KT 00/M05 A3023 RMK A01 T00021049  RH  069%=      5-min Rain = 0
KBY1 140800Z 32004KT 00/M05 A3023 RMK A01 T00011049  RH  069%=      5-min Rain = 0
KBY1 140801Z 31004KT 00/M05 A3023 RMK A01 T00011050  RH  069%=      5-min Rain = 0
KBY1 140802Z 31004KT 00/M05 A3023 RMK A01 T00011050  RH  069%=      5-min Rain = 0
KBY1 140803Z 32004KT 00/05 A3023 RMK A01 T00000-51  RH  069%=      5-min Rain = 0
KBY1 140804Z 32004KT M00/M05 A3023 RMK A01 T10011051  RH  069%=      5-min Rain = 0
KBY1 140805Z 32004KT M00/M05 A3023 RMK A01 T10011051  RH  069%=      5-min Rain = 0
KBY1 140806Z 32004KT M00/M05 A3023 RMK A01 T10021051  RH  069%=      5-min Rain = 0
KBY1 140807Z 32004KT M00/M05 A3023 RMK A01 T10021051  RH  069%=      5-min Rain = 0
KBY1 140808Z 31003KT M00/M05 A3023 RMK A01 T10021051  RH  070%=      5-min Rain = 0
KBY1 140809Z 30003KT M00/M05 A3024 RMK A01 T10011050  RH  070%=      5-min Rain = 0
KBY1 140810Z 29002KT 00/05 A3024 RMK A01 T00-00-50  RH  069%=      5-min Rain = 0
KBY1 140811Z 29003KT 00/05 A3024 RMK A01 T00-00-50  RH  069%=      5-min Rain = 0
KBY1 140812Z 30003KT 00/05 A3024 RMK A01 T00-00-51  RH  069%=      5-min Rain = 0
KBY1 140813Z 29004KT 00/05 A3024 RMK A01 T00-00-51  RH  069%=      5-min Rain = 0
KBY1 140814Z 29003KT 00/05 A3024 RMK A01 T00-00-50  RH  069%=      5-min Rain = 0
KBY1 140815Z 29002KT 00/05 A3024 RMK A01 T00-00-50  RH  069%=      5-min Rain = 0
KBY1 140816Z 29003KT 00/M05 A3024 RMK A01 T00011049  RH  069%=      5-min Rain = 0
KBY1 140817Z 29003KT 00/M05 A3024 RMK A01 T00011050  RH  069%=      5-min Rain = 0
KBY1 140818Z 29003KT 00/M05 A3024 RMK A01 T00011050  RH  069%=      5-min Rain = 0
KBY1 140819Z 29003KT 00/M05 A3024 RMK A01 T00011049  RH  069%=      5-min Rain = 0
KBY1 140820Z 29003KT 00/M05 A3024 RMK A01 T00011049  RH  069%=      5-min Rain = 0
KBY1 140821Z 29004KT 00/M05 A3024 RMK A01 T00011050  RH  069%=      5-min Rain = 0
KBY1 140822Z 30004KT 00/M05 A3024 RMK A01 T00011049  RH  069%=      5-min Rain = 0
KBY1 140823Z 30003KT 00/05 A3024 RMK A01 T00000-50  RH  069%=      5-min Rain = 0
KBY1 140824Z 31003KT 00/05 A3024 RMK A01 T00000-49  RH  069%=      5-min Rain = 0
KBY1 140825Z 32003KT 00/05 A3024 RMK A01 T00-00-49  RH  069%=      5-min Rain = 0
KBY1 140826Z 33004KT 00/05 A3024 RMK A01 T00-00-50  RH  069%=      5-min Rain = 0
KBY1 140827Z 33004KT 00/05 A3024 RMK A01 T00-00-50  RH  069%=      5-min Rain = 0
KBY1 140828Z 33004KT M00/M05 A3024 RMK A01 T10011050  RH  069%=      5-min Rain = 0
KBY1 140829Z 33004KT M00/M05 A3024 RMK A01 T10021051  RH  070%=      5-min Rain = 0
KBY1 140830Z 34003KT M00/M05 A3024 RMK A01 T10031051  RH  070%=      5-min Rain = 0
KBY1 140831Z 34003KT M00/M05 A3023 RMK A01 T10031051  RH  070%=      5-min Rain = 0
KBY1 140832Z 34003KT M00/M05 A3023 RMK A01 T10041051  RH  070%=      5-min Rain = 0
KBY1 140833Z 34002KT M00/M05 A3024 RMK A01 T10041051  RH  071%=      5-min Rain = 0
KBY1 140834Z 36001KT M00/M05 A3024 RMK A01 T10041050  RH  071%=      5-min Rain = 0
KBY1 140835Z 01001KT M00/M05 A3024 RMK A01 T10031049  RH  071%=      5-min Rain = 0
KBY1 140836Z 34000KT M00/M05 A3024 RMK A01 T10021048  RH  071%=      5-min Rain = 0
KBY1 140837Z 32000KT M01/M05 A3024 RMK A01 T10051054  RH  069%=      5-min Rain = 0
KBY1 140838Z 00000KT M01/M05 A3024 RMK A01 T10071054  RH  071%=      5-min Rain = 0
KBY1 140839Z 00000KT M01/M05 A3024 RMK A01 T10081053  RH  072%=      5-min Rain = 0
KBY1 140840Z 22001KT M01/M06 A3024 RMK A01 T10101055  RH  072%=      5-min Rain = 0
KBY1 140841Z 23002KT M01/M06 A3024 RMK A01 T10121056  RH  072%=      5-min Rain = 0
KBY1 140842Z 22002KT M01/M06 A3024 RMK A01 T10141056  RH  073%=      5-min Rain = 0
KBY1 140843Z 22002KT M02/M06 A3024 RMK A01 T10151055  RH  074%=      5-min Rain = 0
KBY1 140844Z 23002KT M02/M06 A3024 RMK A01 T10151055  RH  074%=      5-min Rain = 0
KBY1 140845Z 24002KT M02/M06 A3024 RMK A01 T10161055  RH  075%=      5-min Rain = 0
KBY1 140846Z 23002KT M02/M06 A3024 RMK A01 T10161055  RH  075%=      5-min Rain = 0
KBY1 140847Z 23003KT M02/M06 A3024 RMK A01 T10171055  RH  075%=      5-min Rain = 0
KBY1 140848Z 22003KT M02/M06 A3024 RMK A01 T10191058  RH  075%=      5-min Rain = 0
KBY1 140849Z 22004KT M02/M06 A3024 RMK A01 T10211059  RH  075%=      5-min Rain = 0
KBY1 140850Z 22004KT M02/M06 A3024 RMK A01 T10211057  RH  077%=      5-min Rain = 0
KBY1 140851Z 22005KT M02/M06 A3024 RMK A01 T10211056  RH  077%=      5-min Rain = 0
KBY1 140852Z 22005KT M02/M06 A3024 RMK A01 T10211057  RH  076%=      5-min Rain = 0
KBY1 140853Z 22006KT M02/M06 A3024 RMK A01 T10211057  RH  076%=      5-min Rain = 0
KBY1 140854Z 21006KT M02/M06 A3024 RMK A01 T10221057  RH  077%=      5-min Rain = 0
KBY1 140855Z 23002KT M02/M06 A3024 RMK A01 T10211056  RH  077%=      5-min Rain = 0
KBY1 140856Z 24001KT M02/M05 A3025 RMK A01 T10211054  RH  078%=      5-min Rain = 0
KBY1 140857Z 16000KT M02/M05 A3025 RMK A01 T10191051  RH  078%=      5-min Rain = 0
KBY1 140858Z 21001KT M02/M05 A3024 RMK A01 T10161048  RH  079%=      5-min Rain = 0
KBY1 140859Z 21001KT M01/M05 A3024 RMK A01 T10141047  RH  078%=      5-min Rain = 0
KBY1 140900Z 20002KT M01/M05 A3024 RMK A01 T10121047  RH  077%=      5-min Rain = 0
KBY1 140901Z 17002KT M01/M05 A3024 RMK A01 T10091047  RH  075%=      5-min Rain = 0
KBY1 140902Z 19001KT M01/M05 A3024 RMK A01 T10071048  RH  074%=      5-min Rain = 0
KBY1 140903Z 20002KT M01/M05 A3025 RMK A01 T10061048  RH  073%=      5-min Rain = 0
KBY1 140904Z 17001KT M00/M05 A3025 RMK A01 T10041048  RH  073%=      5-min Rain = 0
KBY1 140905Z 18000KT M00/M05 A3025 RMK A01 T10031048  RH  072%=      5-min Rain = 0
KBY1 140906Z 18000KT M00/M05 A3025 RMK A01 T10031049  RH  071%=      5-min Rain = 0
KBY1 140907Z 22001KT M00/M05 A3025 RMK A01 T10041050  RH  071%=      5-min Rain = 0
KBY1 140908Z 23001KT M01/M05 A3025 RMK A01 T10051050  RH  072%=      5-min Rain = 0
KBY1 140909Z 20001KT M01/M05 A3025 RMK A01 T10051050  RH  072%=      5-min Rain = 0
KBY1 140910Z 19001KT M01/M05 A3025 RMK A01 T10051049  RH  072%=      5-min Rain = 0
KBY1 140911Z 22002KT M00/M05 A3025 RMK A01 T10041048  RH  072%=      5-min Rain = 0
KBY1 140912Z 22002KT M00/M05 A3025 RMK A01 T10041049  RH  072%=      5-min Rain = 0
KBY1 140913Z 23001KT M01/M05 A3025 RMK A01 T10051049  RH  072%=      5-min Rain = 0
KBY1 140914Z 23001KT M01/M05 A3025 RMK A01 T10051049  RH  072%=      5-min Rain = 0
KBY1 140915Z 04002KT M00/M05 A3025 RMK A01 T10041048  RH  072%=      5-min Rain = 0
KBY1 140916Z 35001KT M00/M05 A3025 RMK A01 T10031047  RH  072%=      5-min Rain = 0
KBY1 140917Z 02002KT M00/M05 A3025 RMK A01 T10021046  RH  072%=      5-min Rain = 0
KBY1 140918Z 05001KT 00/M04 A3025 RMK A01 T00011044  RH  072%=      5-min Rain = 0
KBY1 140919Z 01002KT 00/M05 A3025 RMK A01 T00021045  RH  071%=      5-min Rain = 0
KBY1 140920Z 03003KT 00/M04 A3025 RMK A01 T00041044  RH  070%=      5-min Rain = 0
KBY1 140921Z 03004KT 01/M04 A3025 RMK A01 T00051044  RH  070%=      5-min Rain = 0
KBY1 140922Z 02003KT 01/M04 A3025 RMK A01 T00061044  RH  069%=      5-min Rain = 0
KBY1 140923Z 02004KT 01/M04 A3025 RMK A01 T00071044  RH  069%=      5-min Rain = 0
KBY1 140924Z 03006KT 01/M04 A3025 RMK A01 T00071044  RH  069%=      5-min Rain = 0
KBY1 140925Z 03005KT 01/M04 A3025 RMK A01 T00081043  RH  069%=      5-min Rain = 0
KBY1 140926Z 02005KT 01/M04 A3025 RMK A01 T00091043  RH  068%=      5-min Rain = 0
KBY1 140927Z 02004KT 01/M04 A3025 RMK A01 T00101044  RH  068%=      5-min Rain = 0
KBY1 140928Z 02004KT 01/M04 A3025 RMK A01 T00101044  RH  067%=      5-min Rain = 0
KBY1 140929Z 02003KT 01/M04 A3025 RMK A01 T00091044  RH  067%=      5-min Rain = 0
KBY1 140930Z 02003KT 01/M05 A3025 RMK A01 T00081045  RH  067%=      5-min Rain = 0
KBY1 140931Z 02004KT 01/M05 A3025 RMK A01 T00081045  RH  068%=      5-min Rain = 0
KBY1 140932Z 02003KT 01/M04 A3025 RMK A01 T00081044  RH  068%=      5-min Rain = 0
KBY1 140933Z 02003KT 01/M04 A3025 RMK A01 T00081044  RH  068%=      5-min Rain = 0
KBY1 140934Z 02003KT 01/M05 A3025 RMK A01 T00071045  RH  068%=      5-min Rain = 0
KBY1 140935Z 03004KT 01/M05 A3025 RMK A01 T00071045  RH  068%=      5-min Rain = 0
KBY1 140936Z 04003KT 01/M04 A3025 RMK A01 T00081043  RH  069%=      5-min Rain = 0
KBY1 140937Z 04002KT 01/M04 A3025 RMK A01 T00081044  RH  068%=      5-min Rain = 0
KBY1 140938Z 10001KT 01/M05 A3025 RMK A01 T00061048  RH  067%=      5-min Rain = 0
KBY1 140939Z 16001KT 00/M05 A3026 RMK A01 T00011053  RH  067%=      5-min Rain = 0
KBY1 140940Z 18001KT M00/M05 A3026 RMK A01 T10031054  RH  069%=      5-min Rain = 0
KBY1 140941Z 16001KT M01/M06 A3026 RMK A01 T10071055  RH  070%=      5-min Rain = 0
KBY1 140942Z 20000KT M01/M05 A3026 RMK A01 T10091053  RH  072%=      5-min Rain = 0
KBY1 140943Z 22000KT M01/M05 A3026 RMK A01 T10101053  RH  073%=      5-min Rain = 0
KBY1 140944Z 20000KT M01/M05 A3026 RMK A01 T10111052  RH  074%=      5-min Rain = 0
KBY1 140945Z 21000KT M01/M05 A3025 RMK A01 T10091048  RH  075%=      5-min Rain = 0
KBY1 140946Z 00000KT M01/M05 A3025 RMK A01 T10071047  RH  074%=      5-min Rain = 0
KBY1 140947Z 21000KT M01/M05 A3025 RMK A01 T10071048  RH  073%=      5-min Rain = 0
KBY1 140948Z 22001KT M01/M05 A3025 RMK A01 T10061047  RH  074%=      5-min Rain = 0
KBY1 140949Z 22002KT M00/M05 A3025 RMK A01 T10041045  RH  074%=      5-min Rain = 0
KBY1 140950Z 18002KT M00/M04 A3025 RMK A01 T10011044  RH  073%=      5-min Rain = 0
KBY1 140951Z 18002KT 00/05 A3025 RMK A01 T00-00-45  RH  072%=      5-min Rain = 0
KBY1 140952Z 17001KT 00/05 A3025 RMK A01 T00000-46  RH  071%=      5-min Rain = 0
KBY1 140953Z 20001KT M00/M05 A3025 RMK A01 T10011047  RH  071%=      5-min Rain = 0
KBY1 140954Z 27000KT M00/M05 A3025 RMK A01 T10031048  RH  071%=      5-min Rain = 0
KBY1 140955Z 00000KT M00/M05 A3025 RMK A01 T10031047  RH  072%=      5-min Rain = 0
KBY1 140956Z 00000KT M00/M05 A3025 RMK A01 T10021045  RH  073%=      5-min Rain = 0
KBY1 140957Z 00000KT M00/M05 A3025 RMK A01 T10011045  RH  072%=      5-min Rain = 0
KBY1 140958Z 00000KT M00/M05 A3025 RMK A01 T10021046  RH  072%=      5-min Rain = 0
KBY1 140959Z 01000KT M00/M05 A3025 RMK A01 T10011045  RH  072%=      5-min Rain = 0
KBY1 141000Z 00000KT M00/M05 A3025 RMK A01 T10011045  RH  072%=      5-min Rain = 0
KBY1 141001Z 32001KT M00/M05 A3025 RMK A01 T10011045  RH  072%=      5-min Rain = 0
KBY1 141002Z 35000KT M00/M04 A3025 RMK A01 T10011044  RH  073%=      5-min Rain = 0
KBY1 141003Z 00000KT 00/04 A3025 RMK A01 T00-00-43  RH  073%=      5-min Rain = 0
KBY1 141004Z 20000KT 00/04 A3025 RMK A01 T00000-44  RH  072%=      5-min Rain = 0
KBY1 141005Z 22000KT M00/M05 A3026 RMK A01 T10011047  RH  071%=      5-min Rain = 0
KBY1 141006Z 22001KT M00/M05 A3026 RMK A01 T10041049  RH  072%=      5-min Rain = 0
KBY1 141007Z 23000KT M01/M05 A3026 RMK A01 T10051048  RH  073%=      5-min Rain = 0
KBY1 141008Z 00000KT M01/M05 A3026 RMK A01 T10061048  RH  074%=      5-min Rain = 0
KBY1 141009Z 00000KT M01/M05 A3026 RMK A01 T10061046  RH  074%=      5-min Rain = 0
KBY1 141010Z 30000KT M01/M05 A3026 RMK A01 T10061046  RH  074%=      5-min Rain = 0
KBY1 141011Z 35001KT M01/M05 A3026 RMK A01 T10061045  RH  075%=      5-min Rain = 0
KBY1 141012Z 34000KT M01/M05 A3026 RMK A01 T10051045  RH  074%=      5-min Rain = 0
KBY1 141013Z 35001KT M01/M05 A3026 RMK A01 T10051045  RH  074%=      5-min Rain = 0
KBY1 141014Z 34001KT M01/M05 A3026 RMK A01 T10051045  RH  074%=      5-min Rain = 0
KBY1 141015Z 35002KT M01/M05 A3026 RMK A01 T10051046  RH  074%=      5-min Rain = 0
KBY1 141016Z 35002KT M01/M05 A3026 RMK A01 T10061047  RH  074%=      5-min Rain = 0
KBY1 141017Z 35002KT M01/M05 A3026 RMK A01 T10071048  RH  074%=      5-min Rain = 0
KBY1 141018Z 35001KT M01/M05 A3027 RMK A01 T10071046  RH  075%=      5-min Rain = 0
KBY1 141019Z 35000KT M01/M05 A3027 RMK A01 T10071045  RH  075%=      5-min Rain = 0
KBY1 141020Z 34000KT M01/M04 A3027 RMK A01 T10061044  RH  075%=      5-min Rain = 0
KBY1 141021Z 35000KT M01/M04 A3027 RMK A01 T10051044  RH  075%=      5-min Rain = 0
KBY1 141022Z 00000KT M01/M04 A3027 RMK A01 T10051044  RH  075%=      5-min Rain = 0
KBY1 141023Z 36000KT M01/M04 A3027 RMK A01 T10051043  RH  075%=      5-min Rain = 0
KBY1 141024Z 00000KT M00/M04 A3027 RMK A01 T10031042  RH  075%=      5-min Rain = 0
KBY1 141025Z 00000KT M00/M05 A3027 RMK A01 T10041045  RH  074%=      5-min Rain = 0
KBY1 141026Z 00000KT M01/M05 A3027 RMK A01 T10071051  RH  072%=      5-min Rain = 0
KBY1 141027Z 27000KT M01/M05 A3027 RMK A01 T10101052  RH  073%=      5-min Rain = 0
KBY1 141028Z 00000KT M01/M05 A3027 RMK A01 T10111051  RH  074%=      5-min Rain = 0
KBY1 141029Z 00000KT M01/M05 A3027 RMK A01 T10131051  RH  075%=      5-min Rain = 0
KBY1 141030Z 00000KT M01/M05 A3027 RMK A01 T10141050  RH  076%=      5-min Rain = 0
KBY1 141031Z 00000KT M01/M05 A3027 RMK A01 T10141049  RH  077%=      5-min Rain = 0
KBY1 141032Z 00000KT M02/M05 A3027 RMK A01 T10151048  RH  078%=      5-min Rain = 0
KBY1 141033Z 00000KT M02/M05 A3027 RMK A01 T10151048  RH  078%=      5-min Rain = 0
KBY1 141034Z 00000KT M02/M05 A3027 RMK A01 T10171052  RH  077%=      5-min Rain = 0
KBY1 141035Z 00000KT M02/M05 A3027 RMK A01 T10181051  RH  078%=      5-min Rain = 0
KBY1 141036Z 00000KT M02/M05 A3027 RMK A01 T10171049  RH  079%=      5-min Rain = 0
KBY1 141037Z 00000KT M02/M05 A3027 RMK A01 T10161047  RH  079%=      5-min Rain = 0
KBY1 141038Z 29001KT M01/M04 A3027 RMK A01 T10131044  RH  080%=      5-min Rain = 0
KBY1 141039Z 31000KT M01/M04 A3027 RMK A01 T10111043  RH  079%=      5-min Rain = 0
KBY1 141040Z 34001KT M01/M04 A3027 RMK A01 T10101044  RH  078%=      5-min Rain = 0
KBY1 141041Z 00000KT M01/M05 A3027 RMK A01 T10111046  RH  077%=      5-min Rain = 0
KBY1 141042Z 36000KT M01/M05 A3027 RMK A01 T10111045  RH  078%=      5-min Rain = 0
KBY1 141043Z 01000KT M01/M05 A3027 RMK A01 T10121046  RH  078%=      5-min Rain = 0
KBY1 141044Z 35001KT M01/M05 A3027 RMK A01 T10111045  RH  078%=      5-min Rain = 0
KBY1 141045Z 35001KT M01/M05 A3027 RMK A01 T10111045  RH  078%=      5-min Rain = 0
KBY1 141046Z 34002KT M01/M05 A3027 RMK A01 T10121048  RH  077%=      5-min Rain = 0
KBY1 141047Z 32002KT M02/M06 A3027 RMK A01 T10161055  RH  075%=      5-min Rain = 0
KBY1 141048Z 30002KT M02/M06 A3027 RMK A01 T10191057  RH  075%=      5-min Rain = 0
KBY1 141049Z 29002KT M02/M05 A3027 RMK A01 T10201054  RH  078%=      5-min Rain = 0
KBY1 141050Z 28003KT M02/M05 A3027 RMK A01 T10201050  RH  080%=      5-min Rain = 0
KBY1 141051Z 28003KT M02/M05 A3027 RMK A01 T10181046  RH  081%=      5-min Rain = 0
KBY1 141052Z 27003KT M02/M05 A3027 RMK A01 T10171045  RH  081%=      5-min Rain = 0
KBY1 141053Z 27002KT M02/M05 A3027 RMK A01 T10171047  RH  080%=      5-min Rain = 0
KBY1 141054Z 28003KT M02/M05 A3027 RMK A01 T10171048  RH  080%=      5-min Rain = 0
KBY1 141055Z 29003KT M02/M05 A3027 RMK A01 T10171048  RH  080%=      5-min Rain = 0
KBY1 141056Z 30002KT M02/M05 A3027 RMK A01 T10171047  RH  080%=      5-min Rain = 0
KBY1 141057Z 32001KT M02/M05 A3027 RMK A01 T10181049  RH  079%=      5-min Rain = 0
KBY1 141058Z 31002KT M02/M05 A3027 RMK A01 T10191051  RH  079%=      5-min Rain = 0
KBY1 141059Z 31002KT M02/M05 A3027 RMK A01 T10191050  RH  079%=      5-min Rain = 0
KBY1 141100Z 32001KT M02/M05 A3027 RMK A01 T10201049  RH  080%=      5-min Rain = 0
KBY1 141101Z 31001KT M02/M05 A3027 RMK A01 T10211051  RH  079%=      5-min Rain = 0
KBY1 141102Z 27000KT M02/M05 A3027 RMK A01 T10221054  RH  079%=      5-min Rain = 0
KBY1 141103Z 00000KT M02/M05 A3027 RMK A01 T10241054  RH  079%=      5-min Rain = 0
KBY1 141104Z 00000KT M02/M06 A3027 RMK A01 T10241055  RH  079%=      5-min Rain = 0
KBY1 141105Z 00000KT M03/M06 A3027 RMK A01 T10271059  RH  078%=      5-min Rain = 0
KBY1 141106Z 00000KT M03/M06 A3027 RMK A01 T10291061  RH  079%=      5-min Rain = 0
KBY1 141107Z 00000KT M03/M06 A3027 RMK A01 T10311061  RH  080%=      5-min Rain = 0
KBY1 141108Z 00000KT M03/M06 A3028 RMK A01 T10321060  RH  081%=      5-min Rain = 0
KBY1 141109Z 22000KT M03/M06 A3028 RMK A01 T10341060  RH  082%=      5-min Rain = 0
KBY1 141110Z 23000KT M04/M06 A3027 RMK A01 T10351060  RH  083%=      5-min Rain = 0
KBY1 141111Z 25000KT M04/M06 A3027 RMK A01 T10351059  RH  084%=      5-min Rain = 0
KBY1 141112Z 26000KT M04/M06 A3027 RMK A01 T10361059  RH  084%=      5-min Rain = 0
KBY1 141113Z 26000KT M04/M06 A3027 RMK A01 T10371059  RH  085%=      5-min Rain = 0
KBY1 141114Z 00000KT M04/M06 A3028 RMK A01 T10371059  RH  085%=      5-min Rain = 0
KBY1 141115Z 32000KT M04/M06 A3028 RMK A01 T10371058  RH  086%=      5-min Rain = 0
KBY1 141116Z 33001KT M04/M06 A3028 RMK A01 T10371058  RH  086%=      5-min Rain = 0
KBY1 141117Z 30001KT M04/M06 A3028 RMK A01 T10371058  RH  086%=      5-min Rain = 0
KBY1 141118Z 26001KT M04/M06 A3028 RMK A01 T10361055  RH  087%=      5-min Rain = 0
KBY1 141119Z 28001KT M03/M05 A3028 RMK A01 T10341052  RH  087%=      5-min Rain = 0
KBY1 141120Z 29001KT M03/M05 A3028 RMK A01 T10311047  RH  088%=      5-min Rain = 0
KBY1 141121Z 31002KT M03/M04 A3028 RMK A01 T10261043  RH  088%=      5-min Rain = 0
KBY1 141122Z 30002KT M03/M05 A3028 RMK A01 T10261046  RH  086%=      5-min Rain = 0
KBY1 141123Z 30003KT M02/M05 A3028 RMK A01 T10241045  RH  086%=      5-min Rain = 0
KBY1 141124Z 29003KT M02/M04 A3028 RMK A01 T10231044  RH  085%=      5-min Rain = 0
KBY1 141125Z 29003KT M02/M04 A3028 RMK A01 T10221043  RH  085%=      5-min Rain = 0
KBY1 141126Z 28002KT M02/M04 A3028 RMK A01 T10201042  RH  085%=      5-min Rain = 0
KBY1 141127Z 29002KT M02/M04 A3028 RMK A01 T10191042  RH  084%=      5-min Rain = 0
KBY1 141128Z 30001KT M02/M04 A3028 RMK A01 T10181043  RH  084%=      5-min Rain = 0
KBY1 141129Z 32001KT M02/M04 A3028 RMK A01 T10191044  RH  083%=      5-min Rain = 0
KBY1 141130Z 32001KT M02/M04 A3028 RMK A01 T10191044  RH  083%=      5-min Rain = 0
KBY1 141131Z 30003KT M02/M04 A3028 RMK A01 T10191044  RH  083%=      5-min Rain = 0
KBY1 141132Z 30003KT M02/M04 A3028 RMK A01 T10181043  RH  083%=      5-min Rain = 0
KBY1 141133Z 31003KT M02/M04 A3028 RMK A01 T10171042  RH  083%=      5-min Rain = 0
KBY1 141134Z 31002KT M02/M04 A3028 RMK A01 T10151040  RH  083%=      5-min Rain = 0
KBY1 141135Z 31003KT M01/M04 A3028 RMK A01 T10141040  RH  082%=      5-min Rain = 0
KBY1 141136Z 31003KT M01/M04 A3028 RMK A01 T10131042  RH  081%=      5-min Rain = 0
KBY1 141137Z 31002KT M01/M04 A3028 RMK A01 T10131041  RH  081%=      5-min Rain = 0
KBY1 141138Z 32003KT M01/M04 A3028 RMK A01 T10131042  RH  081%=      5-min Rain = 0
KBY1 141139Z 32003KT M01/M04 A3029 RMK A01 T10131043  RH  080%=      5-min Rain = 0
KBY1 141140Z 30003KT M01/M04 A3029 RMK A01 T10141044  RH  080%=      5-min Rain = 0
KBY1 141141Z 31003KT M02/M04 A3029 RMK A01 T10151044  RH  081%=      5-min Rain = 0
KBY1 141142Z 30004KT M02/M04 A3029 RMK A01 T10151042  RH  081%=      5-min Rain = 0
KBY1 141143Z 30003KT M01/M04 A3029 RMK A01 T10141042  RH  081%=      5-min Rain = 0
KBY1 141144Z 30004KT M01/M04 A3029 RMK A01 T10141042  RH  081%=      5-min Rain = 0
KBY1 141145Z 29004KT M01/M04 A3029 RMK A01 T10141042  RH  081%=      5-min Rain = 0
KBY1 141146Z 30004KT M01/M04 A3029 RMK A01 T10141042  RH  081%=      5-min Rain = 0
KBY1 141147Z 31005KT M01/M04 A303 RMK A01 T10131042  RH  081%=      5-min Rain = 0
KBY1 141148Z 31005KT M01/M04 A303 RMK A01 T10131041  RH  081%=      5-min Rain = 0
KBY1 141149Z 31005KT M01/M04 A303 RMK A01 T10121041  RH  081%=      5-min Rain = 0
KBY1 141150Z 31005KT M01/M04 A303 RMK A01 T10121042  RH  081%=      5-min Rain = 0
KBY1 141151Z 31005KT M01/M04 A303 RMK A01 T10121041  RH  081%=      5-min Rain = 0
KBY1 141152Z 30005KT M01/M04 A303 RMK A01 T10121041  RH  081%=      5-min Rain = 0
KBY1 141153Z 29005KT M01/M04 A303 RMK A01 T10121041  RH  081%=      5-min Rain = 0
KBY1 141154Z 30005KT M01/M04 A303 RMK A01 T10111040  RH  081%=      5-min Rain = 0
KBY1 141155Z 29005KT M01/M04 A303 RMK A01 T10101040  RH  080%=      5-min Rain = 0
KBY1 141156Z 30005KT M01/M04 A303 RMK A01 T10111040  RH  080%=      5-min Rain = 0
KBY1 141157Z 29005KT M01/M04 A303 RMK A01 T10111041  RH  080%=      5-min Rain = 0
KBY1 141158Z 29005KT M01/M04 A303 RMK A01 T10111042  RH  080%=      5-min Rain = 0
KBY1 141159Z 30005KT M01/M04 A3031 RMK A01 T10121042  RH  080%=      5-min Rain = 0
KBY1 141200Z 29004KT M01/M04 A3031 RMK A01 T10121042  RH  080%=      5-min Rain = 0
KBY1 141201Z 29004KT M01/M04 A3031 RMK A01 T10121041  RH  080%=      5-min Rain = 0
KBY1 141202Z 30004KT M01/M04 A3031 RMK A01 T10121042  RH  080%=      5-min Rain = 0
KBY1 141203Z 29004KT M01/M04 A3031 RMK A01 T10121042  RH  080%=      5-min Rain = 0
KBY1 141204Z 28005KT M01/M04 A3031 RMK A01 T10121042  RH  080%=      5-min Rain = 0
KBY1 141205Z 27005KT M01/M04 A3031 RMK A01 T10121042  RH  080%=      5-min Rain = 0
KBY1 141206Z 27005KT M01/M04 A3031 RMK A01 T10121042  RH  080%=      5-min Rain = 0
KBY1 141207Z 27004KT M01/M04 A3031 RMK A01 T10131043  RH  080%=      5-min Rain = 0
KBY1 141208Z 27005KT M01/M04 A3031 RMK A01 T10131043  RH  080%=      5-min Rain = 0
KBY1 141209Z 27004KT M01/M04 A3031 RMK A01 T10141043  RH  080%=      5-min Rain = 0
KBY1 141210Z 26005KT M01/M04 A3031 RMK A01 T10141043  RH  081%=      5-min Rain = 0
KBY1 141211Z 26005KT M01/M04 A3031 RMK A01 T10141043  RH  081%=      5-min Rain = 0
KBY1 141212Z 26004KT M02/M04 A3031 RMK A01 T10151044  RH  081%=      5-min Rain = 0
KBY1 141213Z 27005KT M02/M04 A3031 RMK A01 T10151043  RH  081%=      5-min Rain = 0
KBY1 141214Z 27005KT M01/M04 A3031 RMK A01 T10141042  RH  081%=      5-min Rain = 0
KBY1 141215Z 27005KT M01/M04 A3031 RMK A01 T10141042  RH  081%=      5-min Rain = 0
KBY1 141216Z 29005KT M01/M04 A3031 RMK A01 T10131041  RH  081%=      5-min Rain = 0
KBY1 141217Z 28005KT M01/M04 A3031 RMK A01 T10131041  RH  081%=      5-min Rain = 0
KBY1 141218Z 28005KT M01/M04 A3031 RMK A01 T10131042  RH  080%=      5-min Rain = 0
KBY1 141219Z 28005KT M01/M04 A3031 RMK A01 T10131043  RH  080%=      5-min Rain = 0
KBY1 141220Z 28005KT M01/M04 A3031 RMK A01 T10131042  RH  080%=      5-min Rain = 0
KBY1 141221Z 28005KT M01/M04 A3031 RMK A01 T10121042  RH  080%=      5-min Rain = 0
KBY1 141222Z 28005KT M01/M04 A3032 RMK A01 T10121043  RH  080%=      5-min Rain = 0
KBY1 141223Z 28006KT M01/M04 A3032 RMK A01 T10131044  RH  080%=      5-min Rain = 0
KBY1 141224Z 28006KT M01/M04 A3032 RMK A01 T10131044  RH  080%=      5-min Rain = 0
KBY1 141225Z 29005KT M01/M05 A3032 RMK A01 T10141045  RH  080%=      5-min Rain = 0
KBY1 141226Z 28006KT M02/M05 A3032 RMK A01 T10151045  RH  080%=      5-min Rain = 0
KBY1 141227Z 28006KT M02/M05 A3032 RMK A01 T10161046  RH  080%=      5-min Rain = 0
KBY1 141228Z 28005KT M02/M05 A3032 RMK A01 T10171046  RH  080%=      5-min Rain = 0
KBY1 141229Z 28006KT M02/M05 A3032 RMK A01 T10171046  RH  081%=      5-min Rain = 0
KBY1 141230Z 27006KT M02/M05 A3032 RMK A01 T10171046  RH  081%=      5-min Rain = 0
KBY1 141231Z 27006KT M02/M05 A3032 RMK A01 T10171045  RH  081%=      5-min Rain = 0
KBY1 141232Z 28007KT M02/M05 A3032 RMK A01 T10171045  RH  081%=      5-min Rain = 0
KBY1 141233Z 28007KT M02/M05 A3032 RMK A01 T10171045  RH  081%=      5-min Rain = 0
KBY1 141234Z 29007KT M02/M05 A3032 RMK A01 T10171045  RH  081%=      5-min Rain = 0
KBY1 141235Z 29006KT M02/M05 A3032 RMK A01 T10161045  RH  081%=      5-min Rain = 0
KBY1 141236Z 30006KT M02/M05 A3032 RMK A01 T10161045  RH  081%=      5-min Rain = 0
KBY1 141237Z 30006KT M02/M04 A3032 RMK A01 T10151043  RH  081%=      5-min Rain = 0
KBY1 141238Z 30005KT M01/M04 A3032 RMK A01 T10141042  RH  081%=      5-min Rain = 0
KBY1 141239Z 30005KT M01/M04 A3032 RMK A01 T10141043  RH  081%=      5-min Rain = 0
KBY1 141240Z 30005KT M01/M04 A3032 RMK A01 T10141044  RH  080%=      5-min Rain = 0
KBY1 141241Z 29005KT M02/M04 A3032 RMK A01 T10151044  RH  080%=      5-min Rain = 0
KBY1 141242Z 30005KT M02/M04 A3032 RMK A01 T10151044  RH  080%=      5-min Rain = 0
KBY1 141243Z 30005KT M02/M05 A3032 RMK A01 T10151045  RH  080%=      5-min Rain = 0
KBY1 141244Z 30005KT M02/M05 A3032 RMK A01 T10161046  RH  080%=      5-min Rain = 0
KBY1 141245Z 31005KT M02/M05 A3033 RMK A01 T10171047  RH  080%=      5-min Rain = 0
KBY1 141246Z 32004KT M02/M05 A3033 RMK A01 T10181047  RH  080%=      5-min Rain = 0
KBY1 141247Z 32006KT M02/M05 A3033 RMK A01 T10201050  RH  080%=      5-min Rain = 0
KBY1 141248Z 32006KT M02/M05 A3033 RMK A01 T10231052  RH  081%=      5-min Rain = 0
KBY1 141249Z 31006KT M02/M05 A3033 RMK A01 T10241051  RH  082%=      5-min Rain = 0
KBY1 141250Z 32006KT M02/M05 A3033 RMK A01 T10241050  RH  083%=      5-min Rain = 0
KBY1 141251Z 32005KT M02/M05 A3033 RMK A01 T10241049  RH  083%=      5-min Rain = 0
KBY1 141252Z 32006KT M02/M05 A3033 RMK A01 T10241049  RH  083%=      5-min Rain = 0
KBY1 141253Z 32006KT M02/M05 A3033 RMK A01 T10241048  RH  084%=      5-min Rain = 0
KBY1 141254Z 31006KT M02/M05 A3033 RMK A01 T10231047  RH  084%=      5-min Rain = 0
KBY1 141255Z 30006KT M02/M04 A3033 RMK A01 T10211044  RH  084%=      5-min Rain = 0
KBY1 141256Z 29005KT M02/M04 A3033 RMK A01 T10201044  RH  084%=      5-min Rain = 0
KBY1 141257Z 29005KT M02/M04 A3033 RMK A01 T10181044  RH  083%=      5-min Rain = 0
KBY1 141258Z 28004KT M02/M04 A3033 RMK A01 T10171043  RH  082%=      5-min Rain = 0
KBY1 141259Z 28005KT M02/M04 A3033 RMK A01 T10161043  RH  081%=      5-min Rain = 0
KBY1 141300Z 28005KT M02/M04 A3033 RMK A01 T10151044  RH  081%=      5-min Rain = 0
KBY1 141301Z 29006KT M02/M05 A3033 RMK A01 T10151045  RH  080%=      5-min Rain = 0
KBY1 141302Z 29006KT M02/M05 A3033 RMK A01 T10161046  RH  080%=      5-min Rain = 0
KBY1 141303Z 29006KT M02/M05 A3034 RMK A01 T10171046  RH  080%=      5-min Rain = 0
KBY1 141304Z 29005KT M02/M05 A3034 RMK A01 T10171046  RH  081%=      5-min Rain = 0
KBY1 141305Z 28006KT M02/M05 A3034 RMK A01 T10171046  RH  081%=      5-min Rain = 0
KBY1 141306Z 29006KT M02/M05 A3034 RMK A01 T10161045  RH  081%=      5-min Rain = 0
KBY1 141307Z 28006KT M02/M05 A3034 RMK A01 T10151045  RH  080%=      5-min Rain = 0
KBY1 141308Z 28006KT M02/M05 A3034 RMK A01 T10151045  RH  080%=      5-min Rain = 0
KBY1 141309Z 29005KT M01/M05 A3034 RMK A01 T10141045  RH  080%=      5-min Rain = 0
KBY1 141310Z 28005KT M01/M05 A3034 RMK A01 T10141045  RH  079%=      5-min Rain = 0
KBY1 141311Z 28006KT M02/M05 A3034 RMK A01 T10151046  RH  079%=      5-min Rain = 0
KBY1 141312Z 29006KT M02/M05 A3034 RMK A01 T10151046  RH  079%=      5-min Rain = 0
KBY1 141313Z 29006KT M02/M05 A3034 RMK A01 T10151046  RH  079%=      5-min Rain = 0
KBY1 141314Z 29006KT M02/M05 A3035 RMK A01 T10151046  RH  079%=      5-min Rain = 0
KBY1 141315Z 29005KT M02/M05 A3035 RMK A01 T10161046  RH  080%=      5-min Rain = 0
KBY1 141316Z 28006KT M02/M05 A3035 RMK A01 T10161046  RH  080%=      5-min Rain = 0
KBY1 141317Z 28006KT M02/M05 A3035 RMK A01 T10161046  RH  080%=      5-min Rain = 0
KBY1 141318Z 29005KT M02/M05 A3035 RMK A01 T10161047  RH  080%=      5-min Rain = 0
KBY1 141319Z 29006KT M02/M05 A3035 RMK A01 T10171047  RH  080%=      5-min Rain = 0
KBY1 141320Z 30005KT M02/M05 A3035 RMK A01 T10171047  RH  080%=      5-min Rain = 0
KBY1 141321Z 30006KT M02/M05 A3036 RMK A01 T10171047  RH  080%=      5-min Rain = 0
KBY1 141322Z 30005KT M02/M05 A3036 RMK A01 T10181047  RH  080%=      5-min Rain = 0
KBY1 141323Z 30005KT M02/M05 A3035 RMK A01 T10181046  RH  081%=      5-min Rain = 0
KBY1 141324Z 30005KT M02/M05 A3036 RMK A01 T10171045  RH  081%=      5-min Rain = 0
KBY1 141325Z 29005KT M02/M05 A3035 RMK A01 T10171045  RH  081%=      5-min Rain = 0
KBY1 141326Z 29005KT M02/M05 A3035 RMK A01 T10171045  RH  081%=      5-min Rain = 0
KBY1 141327Z 28005KT M02/M04 A3035 RMK A01 T10161044  RH  081%=      5-min Rain = 0
KBY1 141328Z 29005KT M02/M05 A3035 RMK A01 T10161045  RH  081%=      5-min Rain = 0
KBY1 141329Z 29005KT M02/M05 A3035 RMK A01 T10151045  RH  080%=      5-min Rain = 0
KBY1 141330Z 28005KT M02/M05 A3035 RMK A01 T10161047  RH  080%=      5-min Rain = 0
KBY1 141331Z 28005KT M02/M05 A3035 RMK A01 T10181047  RH  080%=      5-min Rain = 0
KBY1 141332Z 28004KT M02/M05 A3035 RMK A01 T10181047  RH  081%=      5-min Rain = 0
KBY1 141333Z 28005KT M02/M05 A3035 RMK A01 T10181046  RH  081%=      5-min Rain = 0
KBY1 141334Z 28004KT M02/M05 A3035 RMK A01 T10181047  RH  081%=      5-min Rain = 0
KBY1 141335Z 28005KT M02/M05 A3035 RMK A01 T10181047  RH  081%=      5-min Rain = 0
KBY1 141336Z 29006KT M02/M05 A3035 RMK A01 T10181046  RH  081%=      5-min Rain = 0
KBY1 141337Z 29006KT M02/M05 A3036 RMK A01 T10181046  RH  081%=      5-min Rain = 0
KBY1 141338Z 29006KT M02/M05 A3036 RMK A01 T10181046  RH  081%=      5-min Rain = 0
KBY1 141339Z 29006KT M02/M05 A3036 RMK A01 T10171046  RH  081%=      5-min Rain = 0
KBY1 141340Z 28005KT M02/M05 A3036 RMK A01 T10171045  RH  081%=      5-min Rain = 0
KBY1 141341Z 28005KT M02/M05 A3036 RMK A01 T10161045  RH  081%=      5-min Rain = 0
KBY1 141342Z 27004KT M02/M05 A3036 RMK A01 T10161045  RH  081%=      5-min Rain = 0
KBY1 141343Z 28004KT M01/M04 A3036 RMK A01 T10141044  RH  081%=      5-min Rain = 0
KBY1 141344Z 28005KT M01/M05 A3036 RMK A01 T10141045  RH  080%=      5-min Rain = 0
KBY1 141345Z 28004KT M01/M05 A3036 RMK A01 T10141046  RH  079%=      5-min Rain = 0
KBY1 141346Z 30004KT M01/M05 A3036 RMK A01 T10141045  RH  079%=      5-min Rain = 0
KBY1 141347Z 31004KT M02/M05 A3036 RMK A01 T10151045  RH  080%=      5-min Rain = 0
KBY1 141348Z 31003KT M01/M04 A3036 RMK A01 T10141044  RH  080%=      5-min Rain = 0
KBY1 141349Z 32003KT M01/M04 A3036 RMK A01 T10141044  RH  080%=      5-min Rain = 0
KBY1 141350Z 31004KT M01/M04 A3037 RMK A01 T10131044  RH  080%=      5-min Rain = 0
KBY1 141351Z 32004KT M01/M04 A3037 RMK A01 T10131043  RH  080%=      5-min Rain = 0
KBY1 141352Z 31004KT M01/M04 A3037 RMK A01 T10121043  RH  080%=      5-min Rain = 0
KBY1 141353Z 31004KT M01/M04 A3037 RMK A01 T10121043  RH  079%=      5-min Rain = 0
KBY1 141354Z 30003KT M01/M04 A3037 RMK A01 T10111043  RH  079%=      5-min Rain = 0
KBY1 141355Z 30003KT M01/M04 A3037 RMK A01 T10111044  RH  079%=      5-min Rain = 0
KBY1 141356Z 30003KT M01/M04 A3037 RMK A01 T10111044  RH  078%=      5-min Rain = 0
KBY1 141357Z 29004KT M01/M05 A3037 RMK A01 T10111045  RH  078%=      5-min Rain = 0
KBY1 141358Z 29003KT M01/M05 A3037 RMK A01 T10121045  RH  078%=      5-min Rain = 0
KBY1 141359Z 29004KT M01/M05 A3037 RMK A01 T10121045  RH  078%=      5-min Rain = 0
KBY1 141400Z 29004KT M01/M05 A3037 RMK A01 T10131046  RH  078%=      5-min Rain = 0
KBY1 141401Z 30004KT M01/M05 A3037 RMK A01 T10131045  RH  079%=      5-min Rain = 0
KBY1 141402Z 30004KT M01/M05 A3037 RMK A01 T10131045  RH  079%=      5-min Rain = 0
KBY1 141403Z 31004KT M01/M05 A3038 RMK A01 T10121045  RH  079%=      5-min Rain = 0
KBY1 141404Z 31004KT M01/M04 A3038 RMK A01 T10121044  RH  079%=      5-min Rain = 0
KBY1 141405Z 32003KT M01/M04 A3038 RMK A01 T10111044  RH  078%=      5-min Rain = 0
KBY1 141406Z 31005KT M01/M04 A3038 RMK A01 T10101043  RH  078%=      5-min Rain = 0
KBY1 141407Z 30004KT M01/M04 A3038 RMK A01 T10101044  RH  078%=      5-min Rain = 0
KBY1 141408Z 30004KT M01/M04 A3038 RMK A01 T10101044  RH  078%=      5-min Rain = 0
KBY1 141409Z 30004KT M01/M04 A3038 RMK A01 T10091043  RH  078%=      5-min Rain = 0
KBY1 141410Z 29003KT M01/M04 A3038 RMK A01 T10091044  RH  077%=      5-min Rain = 0
KBY1 141411Z 28002KT M01/M04 A3038 RMK A01 T10091044  RH  077%=      5-min Rain = 0
KBY1 141412Z 28002KT M01/M04 A3038 RMK A01 T10081043  RH  077%=      5-min Rain = 0
KBY1 141413Z 26002KT M01/M04 A3038 RMK A01 T10071042  RH  078%=      5-min Rain = 0
KBY1 141414Z 26003KT M01/M04 A3038 RMK A01 T10071042  RH  077%=      5-min Rain = 0
KBY1 141415Z 26003KT M01/M04 A3038 RMK A01 T10061042  RH  077%=      5-min Rain = 0
KBY1 141416Z 26004KT M01/M04 A3038 RMK A01 T10061041  RH  077%=      5-min Rain = 0
KBY1 141417Z 27003KT M01/M04 A3038 RMK A01 T10061041  RH  077%=      5-min Rain = 0
KBY1 141418Z 27002KT M01/M04 A3038 RMK A01 T10051041  RH  077%=      5-min Rain = 0
KBY1 141419Z 28002KT M01/M04 A3038 RMK A01 T10051041  RH  077%=      5-min Rain = 0
KBY1 141420Z 31002KT M01/M04 A3038 RMK A01 T10051040  RH  077%=      5-min Rain = 0
KBY1 141421Z 28002KT M00/M04 A3038 RMK A01 T10041040  RH  077%=      5-min Rain = 0
KBY1 141422Z 27002KT M00/M04 A3038 RMK A01 T10041040  RH  076%=      5-min Rain = 0
KBY1 141423Z 28000KT M00/M04 A3039 RMK A01 T10031039  RH  076%=      5-min Rain = 0
KBY1 141424Z 29002KT M00/M04 A3039 RMK A01 T10021039  RH  076%=      5-min Rain = 0
KBY1 141425Z 25003KT M00/M04 A3038 RMK A01 T10021039  RH  076%=      5-min Rain = 0
KBY1 141426Z 25003KT M00/M04 A3038 RMK A01 T10021039  RH  076%=      5-min Rain = 0
KBY1 141427Z 24003KT M00/M04 A3038 RMK A01 T10021039  RH  076%=      5-min Rain = 0
KBY1 141428Z 24004KT M00/M04 A3038 RMK A01 T10011038  RH  076%=      5-min Rain = 0
KBY1 141429Z 24004KT M00/M04 A3038 RMK A01 T10011038  RH  076%=      5-min Rain = 0
KBY1 141430Z 24004KT 00/04 A3038 RMK A01 T00000-36  RH  076%=      5-min Rain = 0
KBY1 141431Z 26004KT 00/M04 A3039 RMK A01 T00011036  RH  076%=      5-min Rain = 0
KBY1 141432Z 27004KT 00/M04 A3039 RMK A01 T00021036  RH  075%=      5-min Rain = 0
KBY1 141433Z 27004KT 00/M04 A3039 RMK A01 T00021036  RH  075%=      5-min Rain = 0
KBY1 141434Z 27003KT 00/M04 A3039 RMK A01 T00021036  RH  075%=      5-min Rain = 0
KBY1 141435Z 27003KT 00/M04 A3039 RMK A01 T00021037  RH  075%=      5-min Rain = 0
KBY1 141436Z 27003KT 00/M04 A3039 RMK A01 T00021037  RH  075%=      5-min Rain = 0
KBY1 141437Z 30002KT 00/M04 A3039 RMK A01 T00041035  RH  075%=      5-min Rain = 0
KBY1 141438Z 30003KT 01/M03 A3039 RMK A01 T00051034  RH  075%=      5-min Rain = 0
KBY1 141439Z 30002KT 01/M03 A3039 RMK A01 T00061033  RH  075%=      5-min Rain = 0
KBY1 141440Z 34002KT 01/M03 A3039 RMK A01 T00061034  RH  074%=      5-min Rain = 0
KBY1 141441Z 31002KT 01/M03 A3039 RMK A01 T00071033  RH  074%=      5-min Rain = 0
KBY1 141442Z 28002KT 01/M03 A3039 RMK A01 T00081033  RH  074%=      5-min Rain = 0
KBY1 141443Z 28002KT 01/M03 A3039 RMK A01 T00081034  RH  073%=      5-min Rain = 0
KBY1 141444Z 26003KT 01/M03 A304 RMK A01 T00081034  RH  073%=      5-min Rain = 0
KBY1 141445Z 25002KT 01/M03 A304 RMK A01 T00091034  RH  073%=      5-min Rain = 0
KBY1 141446Z 25003KT 01/M03 A304 RMK A01 T00091034  RH  073%=      5-min Rain = 0
KBY1 141447Z 26002KT 01/M03 A304 RMK A01 T00101033  RH  073%=      5-min Rain = 0
KBY1 141448Z 25002KT 01/M03 A304 RMK A01 T00111033  RH  073%=      5-min Rain = 0
KBY1 141449Z 26002KT 01/M03 A304 RMK A01 T00111033  RH  072%=      5-min Rain = 0
KBY1 141450Z 25002KT 01/M03 A304 RMK A01 T00121033  RH  072%=      5-min Rain = 0
KBY1 141451Z 25003KT 01/M03 A304 RMK A01 T00121032  RH  072%=      5-min Rain = 0
KBY1 141452Z 24003KT 01/M03 A304 RMK A01 T00131031  RH  072%=      5-min Rain = 0
KBY1 141453Z 23003KT 01/M03 A304 RMK A01 T00141032  RH  072%=      5-min Rain = 0
KBY1 141454Z 24002KT 01/M03 A304 RMK A01 T00141032  RH  072%=      5-min Rain = 0
KBY1 141455Z 24002KT 01/M03 A304 RMK A01 T00141032  RH  072%=      5-min Rain = 0
KBY1 141456Z 23001KT 02/M03 A304 RMK A01 T00151030  RH  072%=      5-min Rain = 0
KBY1 141457Z 21003KT 02/M03 A304 RMK A01 T00161030  RH  071%=      5-min Rain = 0
KBY1 141458Z 22003KT 02/M03 A304 RMK A01 T00181030  RH  071%=      5-min Rain = 0
KBY1 141459Z 21004KT 02/M03 A304 RMK A01 T00171031  RH  070%=      5-min Rain = 0
KBY1 141500Z 21002KT 02/M03 A304 RMK A01 T00171030  RH  071%=      5-min Rain = 0
KBY1 141501Z 22002KT 02/M03 A304 RMK A01 T00181029  RH  071%=      5-min Rain = 0
KBY1 141502Z 22001KT 02/M03 A3041 RMK A01 T00191028  RH  071%=      5-min Rain = 0
KBY1 141503Z 25001KT 02/M03 A3041 RMK A01 T00201028  RH  071%=      5-min Rain = 0
KBY1 141504Z 23001KT 02/M03 A3041 RMK A01 T00211028  RH  070%=      5-min Rain = 0
KBY1 141505Z 23002KT 02/M03 A3041 RMK A01 T00221027  RH  070%=      5-min Rain = 0
KBY1 141506Z 23003KT 02/M03 A3041 RMK A01 T00231027  RH  070%=      5-min Rain = 0
KBY1 141507Z 23003KT 03/M03 A3041 RMK A01 T00251026  RH  069%=      5-min Rain = 0
KBY1 141508Z 24003KT 03/M03 A3041 RMK A01 T00261027  RH  068%=      5-min Rain = 0
KBY1 141509Z 23004KT 03/M03 A3041 RMK A01 T00261027  RH  068%=      5-min Rain = 0
KBY1 141510Z 24004KT 03/M03 A3041 RMK A01 T00261027  RH  068%=      5-min Rain = 0
KBY1 141511Z 22003KT 03/M03 A3041 RMK A01 T00261028  RH  068%=      5-min Rain = 0
KBY1 141512Z 22003KT 02/M03 A3041 RMK A01 T00241028  RH  068%=      5-min Rain = 0
KBY1 141513Z 23003KT 03/M03 A3041 RMK A01 T00251028  RH  068%=      5-min Rain = 0
KBY1 141514Z 23002KT 03/M03 A3041 RMK A01 T00251027  RH  069%=      5-min Rain = 0
KBY1 141515Z 23002KT 03/M03 A3041 RMK A01 T00261026  RH  068%=      5-min Rain = 0
KBY1 141516Z 28002KT 03/M02 A3041 RMK A01 T00291024  RH  068%=      5-min Rain = 0
KBY1 141517Z 30002KT 03/M02 A3041 RMK A01 T00311023  RH  067%=      5-min Rain = 0
KBY1 141518Z 29002KT 03/M02 A3041 RMK A01 T00331024  RH  066%=      5-min Rain = 0
KBY1 141519Z 29002KT 03/M02 A3041 RMK A01 T00331024  RH  066%=      5-min Rain = 0
KBY1 141520Z 29003KT 03/M02 A3041 RMK A01 T00341023  RH  066%=      5-min Rain = 0
KBY1 141521Z 28001KT 04/M02 A3041 RMK A01 T00361022  RH  066%=      5-min Rain = 0
KBY1 141522Z 26001KT 04/M02 A3041 RMK A01 T00371021  RH  066%=      5-min Rain = 0
KBY1 141523Z 28002KT 04/M02 A3041 RMK A01 T00381021  RH  066%=      5-min Rain = 0
KBY1 141524Z 28001KT 04/M02 A3041 RMK A01 T00401020  RH  065%=      5-min Rain = 0
KBY1 141525Z 23000KT 04/M02 A3042 RMK A01 T00421019  RH  065%=      5-min Rain = 0
KBY1 141526Z 24001KT 04/M02 A3042 RMK A01 T00431019  RH  064%=      5-min Rain = 0
KBY1 141527Z 26002KT 05/M02 A3042 RMK A01 T00451019  RH  063%=      5-min Rain = 0
KBY1 141528Z 26001KT 05/M02 A3042 RMK A01 T00451019  RH  063%=      5-min Rain = 0
KBY1 141529Z 24001KT 05/M02 A3042 RMK A01 T00461019  RH  063%=      5-min Rain = 0
KBY1 141530Z 19001KT 05/M02 A3042 RMK A01 T00461019  RH  063%=      5-min Rain = 0
KBY1 141531Z 20002KT 05/M02 A3042 RMK A01 T00471018  RH  063%=      5-min Rain = 0
KBY1 141532Z 22004KT 05/M02 A3042 RMK A01 T00491018  RH  062%=      5-min Rain = 0
KBY1 141533Z 21003KT 05/M02 A3042 RMK A01 T00491020  RH  061%=      5-min Rain = 0
KBY1 141534Z 23003KT 05/M02 A3042 RMK A01 T00491018  RH  062%=      5-min Rain = 0
KBY1 141535Z 24002KT 05/M02 A3042 RMK A01 T00491019  RH  061%=      5-min Rain = 0
KBY1 141536Z 26002KT 05/M02 A3042 RMK A01 T00491019  RH  061%=      5-min Rain = 0
KBY1 141537Z 24002KT 05/M02 A3042 RMK A01 T00491019  RH  062%=      5-min Rain = 0
KBY1 141538Z 25002KT 05/M02 A3042 RMK A01 T00501017  RH  062%=      5-min Rain = 0
KBY1 141539Z 27002KT 05/M02 A3042 RMK A01 T00501017  RH  062%=      5-min Rain = 0
KBY1 141540Z 27002KT 05/M02 A3042 RMK A01 T00501017  RH  062%=      5-min Rain = 0
KBY1 141541Z 24002KT 05/M02 A3042 RMK A01 T00521015  RH  062%=      5-min Rain = 0
KBY1 141542Z 21002KT 05/M02 A3042 RMK A01 T00541015  RH  061%=      5-min Rain = 0
KBY1 141543Z 19002KT 06/M02 A3042 RMK A01 T00561015  RH  061%=      5-min Rain = 0
KBY1 141544Z 18002KT 06/M02 A3042 RMK A01 T00561016  RH  060%=      5-min Rain = 0
KBY1 141545Z 16003KT 06/M02 A3042 RMK A01 T00561016  RH  060%=      5-min Rain = 0
KBY1 141546Z 16003KT 06/M02 A3042 RMK A01 T00551016  RH  060%=      5-min Rain = 0
KBY1 141547Z 13002KT 06/M02 A3042 RMK A01 T00561016  RH  060%=      5-min Rain = 0
KBY1 141548Z 15002KT 06/M02 A3042 RMK A01 T00561015  RH  060%=      5-min Rain = 0
KBY1 141549Z 14002KT 06/M02 A3042 RMK A01 T00571015  RH  060%=      5-min Rain = 0
KBY1 141550Z 17002KT 06/M02 A3042 RMK A01 T00571015  RH  060%=      5-min Rain = 0
KBY1 141551Z 19000KT 06/M02 A3042 RMK A01 T00571015  RH  060%=      5-min Rain = 0
KBY1 141552Z 23001KT 06/M02 A3042 RMK A01 T00581015  RH  060%=      5-min Rain = 0
KBY1 141553Z 18001KT 06/M02 A3042 RMK A01 T00571015  RH  060%=      5-min Rain = 0
KBY1 141554Z 22000KT 06/M01 A3042 RMK A01 T00571014  RH  060%=      5-min Rain = 0
KBY1 141555Z 00000KT 06/M01 A3042 RMK A01 T00591013  RH  060%=      5-min Rain = 0
KBY1 141556Z 00000KT 06/M01 A3042 RMK A01 T00611013  RH  059%=      5-min Rain = 0
KBY1 141557Z 34001KT 06/M01 A3042 RMK A01 T00621012  RH  059%=      5-min Rain = 0
KBY1 141558Z 35001KT 06/M01 A3042 RMK A01 T00621012  RH  059%=      5-min Rain = 0
KBY1 141559Z 32001KT 06/M01 A3042 RMK A01 T00631012  RH  059%=      5-min Rain = 0
KBY1 141600Z 32001KT 06/M01 A3042 RMK A01 T00631013  RH  058%=      5-min Rain = 0
KBY1 141601Z 35002KT 06/M01 A3042 RMK A01 T00621013  RH  058%=      5-min Rain = 0
KBY1 141602Z 34000KT 06/M01 A3042 RMK A01 T00621013  RH  059%=      5-min Rain = 0
KBY1 141603Z 00000KT 06/M01 A3042 RMK A01 T00621012  RH  059%=      5-min Rain = 0
KBY1 141604Z 01001KT 06/M01 A3042 RMK A01 T00631011  RH  059%=      5-min Rain = 0
KBY1 141605Z 09001KT 07/M01 A3042 RMK A01 T00661009  RH  059%=      5-min Rain = 0
KBY1 141606Z 09002KT 07/M01 A3042 RMK A01 T00671008  RH  059%=      5-min Rain = 0
KBY1 141607Z 08002KT 07/M01 A3042 RMK A01 T00671007  RH  059%=      5-min Rain = 0
KBY1 141608Z 10001KT 07/M01 A3042 RMK A01 T00681007  RH  059%=      5-min Rain = 0
KBY1 141609Z 11001KT 07/M01 A3042 RMK A01 T00681006  RH  059%=      5-min Rain = 0
KBY1 141610Z 11002KT 07/M01 A3042 RMK A01 T00701006  RH  059%=      5-min Rain = 0
KBY1 141611Z 08001KT 07/M01 A3042 RMK A01 T00711006  RH  058%=      5-min Rain = 0
KBY1 141612Z 09001KT 07/M01 A3042 RMK A01 T00721006  RH  058%=      5-min Rain = 0
KBY1 141613Z 07002KT 07/M01 A3042 RMK A01 T00721006  RH  057%=      5-min Rain = 0
KBY1 141614Z 07001KT 07/M01 A3042 RMK A01 T00721005  RH  058%=      5-min Rain = 0
KBY1 141615Z 08001KT 07/M00 A3042 RMK A01 T00731004  RH  058%=      5-min Rain = 0
KBY1 141616Z 07001KT 07/M00 A3042 RMK A01 T00741004  RH  058%=      5-min Rain = 0
KBY1 141617Z 06003KT 08/M00 A3042 RMK A01 T00751004  RH  057%=      5-min Rain = 0
KBY1 141618Z 06003KT 07/M01 A3042 RMK A01 T00741005  RH  057%=      5-min Rain = 0
KBY1 141619Z 07004KT 07/M01 A3042 RMK A01 T00711006  RH  058%=      5-min Rain = 0
KBY1 141620Z 08003KT 07/M01 A3042 RMK A01 T00701007  RH  058%=      5-min Rain = 0
KBY1 141621Z 09002KT 07/M01 A3042 RMK A01 T00691005  RH  059%=      5-min Rain = 0
KBY1 141622Z 10003KT 07/M01 A3042 RMK A01 T00691005  RH  059%=      5-min Rain = 0
KBY1 141623Z 13003KT 07/M01 A3042 RMK A01 T00691006  RH  059%=      5-min Rain = 0
KBY1 141624Z 14002KT 07/M01 A3042 RMK A01 T00701006  RH  059%=      5-min Rain = 0
KBY1 141625Z 12002KT 07/M01 A3042 RMK A01 T00691005  RH  059%=      5-min Rain = 0
KBY1 141626Z 11004KT 07/M00 A3042 RMK A01 T00711004  RH  059%=      5-min Rain = 0
KBY1 141627Z 09004KT 07/M00 A3042 RMK A01 T00731003  RH  058%=      5-min Rain = 0
KBY1 141628Z 08004KT 07/M00 A3042 RMK A01 T00741004  RH  058%=      5-min Rain = 0
KBY1 141629Z 09003KT 07/M01 A3042 RMK A01 T00741005  RH  057%=      5-min Rain = 0
KBY1 141630Z 12003KT 07/M01 A3042 RMK A01 T00741005  RH  057%=      5-min Rain = 0
KBY1 141631Z 13003KT 07/M01 A3042 RMK A01 T00721005  RH  058%=      5-min Rain = 0
KBY1 141632Z 11003KT 07/M00 A3042 RMK A01 T00731004  RH  058%=      5-min Rain = 0
KBY1 141633Z 13003KT 08/M00 A3042 RMK A01 T00751004  RH  057%=      5-min Rain = 0
KBY1 141634Z 11003KT 07/M01 A3042 RMK A01 T00741006  RH  057%=      5-min Rain = 0
KBY1 141635Z 10002KT 07/M00 A3042 RMK A01 T00741004  RH  058%=      5-min Rain = 0
KBY1 141636Z 10001KT 07/M01 A3042 RMK A01 T00731005  RH  058%=      5-min Rain = 0
KBY1 141637Z 00000KT 07/M01 A3042 RMK A01 T00741005  RH  057%=      5-min Rain = 0
KBY1 141638Z 15001KT 08/M01 A3042 RMK A01 T00751005  RH  057%=      5-min Rain = 0
KBY1 141639Z 15003KT 08/M00 A3042 RMK A01 T00771004  RH  057%=      5-min Rain = 0
KBY1 141640Z 17003KT 08/M00 A3042 RMK A01 T00781003  RH  056%=      5-min Rain = 0
KBY1 141641Z 08003KT 08/M00 A3042 RMK A01 T00791003  RH  056%=      5-min Rain = 0
KBY1 141642Z 06005KT 08/M00 A3042 RMK A01 T00801003  RH  056%=      5-min Rain = 0
KBY1 141643Z 06004KT 08/M00 A3042 RMK A01 T00791004  RH  056%=      5-min Rain = 0
KBY1 141644Z 07003KT 08/M00 A3042 RMK A01 T00791003  RH  056%=      5-min Rain = 0
KBY1 141645Z 07003KT 08/M00 A3042 RMK A01 T00791003  RH  056%=      5-min Rain = 0
KBY1 141646Z 07002KT 08/M00 A3042 RMK A01 T00791004  RH  056%=      5-min Rain = 0
KBY1 141647Z 07002KT 08/M00 A3042 RMK A01 T00811002  RH  056%=      5-min Rain = 0
KBY1 141648Z 08002KT 08/M00 A3042 RMK A01 T00811004  RH  055%=      5-min Rain = 0
KBY1 141649Z 05002KT 08/M00 A3042 RMK A01 T00801004  RH  055%=      5-min Rain = 0
KBY1 141650Z 05002KT 08/M00 A3042 RMK A01 T00801004  RH  055%=      5-min Rain = 0
KBY1 141651Z 04003KT 08/M00 A3042 RMK A01 T00821002  RH  055%=      5-min Rain = 0
KBY1 141652Z 03003KT 08/M00 A3042 RMK A01 T00841003  RH  055%=      5-min Rain = 0
KBY1 141653Z 05001KT 08/M00 A3042 RMK A01 T00841003  RH  054%=      5-min Rain = 0
KBY1 141654Z 05002KT 08/M00 A3042 RMK A01 T00841003  RH  054%=      5-min Rain = 0
KBY1 141655Z 03002KT 09/M00 A3042 RMK A01 T00851003  RH  054%=      5-min Rain = 0
KBY1 141656Z 03003KT 09/M00 A3043 RMK A01 T00851003  RH  054%=      5-min Rain = 0
KBY1 141657Z 01003KT 09/M00 A3042 RMK A01 T00851003  RH  054%=      5-min Rain = 0
KBY1 141658Z 34003KT 08/M00 A3042 RMK A01 T00831004  RH  054%=      5-min Rain = 0
KBY1 141659Z 07001KT 08/M00 A3042 RMK A01 T00841001  RH  055%=      5-min Rain = 0
KBY1 141700Z 13003KT 09/M00 A3042 RMK A01 T00871001  RH  054%=      5-min Rain = 0
KBY1 141701Z 12003KT 09/M00 A3042 RMK A01 T00891001  RH  053%=      5-min Rain = 0
KBY1 141702Z 12004KT 09/M00 A3042 RMK A01 T00891002  RH  053%=      5-min Rain = 0
KBY1 141703Z 10002KT 09/M00 A3042 RMK A01 T00891003  RH  053%=      5-min Rain = 0
KBY1 141704Z 04001KT 09/M00 A3042 RMK A01 T00861003  RH  053%=      5-min Rain = 0
KBY1 141705Z 13001KT 09/M00 A3042 RMK A01 T00871001  RH  054%=      5-min Rain = 0
KBY1 141706Z 16002KT 09/M00 A3042 RMK A01 T00871002  RH  053%=      5-min Rain = 0
KBY1 141707Z 13003KT 09/00 A3042 RMK A01 T00890001  RH  054%=      5-min Rain = 0
KBY1 141708Z 10004KT 09/00 A3042 RMK A01 T009100-0  RH  053%=      5-min Rain = 0
KBY1 141709Z 10003KT 09/M00 A3042 RMK A01 T00911001  RH  053%=      5-min Rain = 0
KBY1 141710Z 11003KT 09/M00 A3042 RMK A01 T00911001  RH  053%=      5-min Rain = 0
KBY1 141711Z 10003KT 09/M00 A3042 RMK A01 T00901002  RH  053%=      5-min Rain = 0
KBY1 141712Z 10001KT 09/M00 A3042 RMK A01 T00881003  RH  053%=      5-min Rain = 0
KBY1 141713Z 09001KT 09/M00 A3042 RMK A01 T00881002  RH  053%=      5-min Rain = 0
KBY1 141714Z 11003KT 09/00 A3042 RMK A01 T008900-0  RH  054%=      5-min Rain = 0
KBY1 141715Z 12003KT 09/00 A3042 RMK A01 T00920000  RH  053%=      5-min Rain = 0
KBY1 141716Z 10002KT 09/M00 A3042 RMK A01 T00921001  RH  052%=      5-min Rain = 0
KBY1 141717Z 15002KT 09/00 A3042 RMK A01 T00940001  RH  052%=      5-min Rain = 0
KBY1 141718Z 04003KT 10/00 A3042 RMK A01 T00970001  RH  051%=      5-min Rain = 0
KBY1 141719Z 05005KT 10/00 A3042 RMK A01 T00980001  RH  051%=      5-min Rain = 0
KBY1 141720Z 03002KT 10/M00 A3042 RMK A01 T00961001  RH  051%=      5-min Rain = 0
KBY1 141721Z 35002KT 09/M00 A3042 RMK A01 T00941001  RH  052%=      5-min Rain = 0
KBY1 141722Z 32002KT 09/M00 A3042 RMK A01 T00941001  RH  052%=      5-min Rain = 0
KBY1 141723Z 16001KT 09/00 A3042 RMK A01 T00940000  RH  052%=      5-min Rain = 0
KBY1 141724Z 14003KT 10/00 A3042 RMK A01 T00950000  RH  052%=      5-min Rain = 0
KBY1 141725Z 18001KT 10/00 A3042 RMK A01 T00960000  RH  051%=      5-min Rain = 0
KBY1 141726Z 11002KT 10/00 A3042 RMK A01 T00960001  RH  051%=      5-min Rain = 0
KBY1 141727Z 11002KT 10/00 A3042 RMK A01 T01000003  RH  051%=      5-min Rain = 0
KBY1 141728Z 09003KT 10/00 A3042 RMK A01 T01020003  RH  050%=      5-min Rain = 0
KBY1 141729Z 11003KT 10/00 A3042 RMK A01 T01030001  RH  049%=      5-min Rain = 0
KBY1 141730Z 12002KT 10/00 A3042 RMK A01 T01030001  RH  049%=      5-min Rain = 0
KBY1 141731Z 12001KT 10/00 A3042 RMK A01 T01010000  RH  050%=      5-min Rain = 0
KBY1 141732Z 09003KT 10/00 A3042 RMK A01 T01010000  RH  050%=      5-min Rain = 0
KBY1 141733Z 11004KT 10/00 A3042 RMK A01 T00990001  RH  050%=      5-min Rain = 0
KBY1 141734Z 12004KT 10/00 A3042 RMK A01 T00990001  RH  051%=      5-min Rain = 0
KBY1 141735Z 14002KT 10/00 A3042 RMK A01 T00990001  RH  050%=      5-min Rain = 0
KBY1 141736Z 15002KT 10/00 A3042 RMK A01 T00990001  RH  050%=      5-min Rain = 0
KBY1 141737Z 16002KT 10/00 A3042 RMK A01 T01010002  RH  050%=      5-min Rain = 0
KBY1 141738Z 14002KT 10/00 A3042 RMK A01 T01020001  RH  049%=      5-min Rain = 0
KBY1 141739Z 12003KT 10/00 A3042 RMK A01 T01020001  RH  049%=      5-min Rain = 0
KBY1 141740Z 10003KT 10/00 A3042 RMK A01 T01030001  RH  049%=      5-min Rain = 0
KBY1 141741Z 13004KT 10/00 A3042 RMK A01 T01030002  RH  049%=      5-min Rain = 0
KBY1 141742Z 10006KT 10/00 A3042 RMK A01 T01040001  RH  049%=      5-min Rain = 0
KBY1 141743Z 11004KT 11/00 A3042 RMK A01 T01050002  RH  049%=      5-min Rain = 0
KBY1 141744Z 10004KT 11/00 A3042 RMK A01 T01050000  RH  048%=      5-min Rain = 0
KBY1 141745Z 07005KT 11/00 A3042 RMK A01 T01050002  RH  049%=      5-min Rain = 0
KBY1 141746Z 08004KT 11/00 A3042 RMK A01 T01060002  RH  049%=      5-min Rain = 0
KBY1 141747Z 07005KT 11/00 A3042 RMK A01 T01060001  RH  048%=      5-min Rain = 0
KBY1 141748Z 07006KT 11/00 A3042 RMK A01 T01060001  RH  048%=      5-min Rain = 0
KBY1 141749Z 09005KT 10/00 A3041 RMK A01 T01030001  RH  049%=      5-min Rain = 0
KBY1 141750Z 10005KT 10/00 A3041 RMK A01 T01040002  RH  049%=      5-min Rain = 0
KBY1 141751Z 06004KT 11/00 A3041 RMK A01 T01050002  RH  049%=      5-min Rain = 0
KBY1 141752Z 08003KT 11/00 A3041 RMK A01 T01060001  RH  049%=      5-min Rain = 0
KBY1 141753Z 08006KT 11/00 A3041 RMK A01 T01060001  RH  048%=      5-min Rain = 0
KBY1 141754Z 09005KT 11/00 A3041 RMK A01 T01050001  RH  048%=      5-min Rain = 0
KBY1 141755Z 09003KT 10/00 A3041 RMK A01 T01040002  RH  049%=      5-min Rain = 0
KBY1 141756Z 08001KT 11/00 A3041 RMK A01 T01050001  RH  048%=      5-min Rain = 0
KBY1 141757Z 12002KT 10/00 A3041 RMK A01 T01040001  RH  049%=      5-min Rain = 0
KBY1 141758Z 14003KT 11/00 A3041 RMK A01 T01060001  RH  048%=      5-min Rain = 0
KBY1 141759Z 15002KT 11/00 A3041 RMK A01 T01070001  RH  048%=      5-min Rain = 0
KBY1 141800Z 19001KT 11/00 A3041 RMK A01 T01070001  RH  048%=      5-min Rain = 0
KBY1 141801Z 24001KT 11/00 A3041 RMK A01 T01070001  RH  048%=      5-min Rain = 0
KBY1 141802Z 24001KT 11/00 A3041 RMK A01 T01070001  RH  048%=      5-min Rain = 0
KBY1 141803Z 21002KT 11/00 A3041 RMK A01 T01070002  RH  048%=      5-min Rain = 0
KBY1 141804Z 13002KT 11/00 A3041 RMK A01 T01100004  RH  048%=      5-min Rain = 0
KBY1 141805Z 09003KT 11/00 A3041 RMK A01 T01120003  RH  047%=      5-min Rain = 0
KBY1 141806Z 09002KT 11/00 A3041 RMK A01 T01120000  RH  046%=      5-min Rain = 0
KBY1 141807Z 36001KT 11/M00 A304 RMK A01 T01121001  RH  046%=      5-min Rain = 0
KBY1 141808Z 05002KT 11/00 A304 RMK A01 T01120000  RH  046%=      5-min Rain = 0
KBY1 141809Z 06005KT 11/00 A304 RMK A01 T01140001  RH  046%=      5-min Rain = 0
KBY1 141810Z 05004KT 11/M00 A304 RMK A01 T01141001  RH  045%=      5-min Rain = 0
KBY1 141811Z 03006KT 11/M00 A304 RMK A01 T01121001  RH  046%=      5-min Rain = 0
KBY1 141812Z 03005KT 11/00 A304 RMK A01 T011300-0  RH  046%=      5-min Rain = 0
KBY1 141813Z 01003KT 11/00 A304 RMK A01 T011300-0  RH  045%=      5-min Rain = 0
KBY1 141814Z 03004KT 11/M00 A304 RMK A01 T01121001  RH  045%=      5-min Rain = 0
KBY1 141815Z 05001KT 11/00 A304 RMK A01 T011200-0  RH  046%=      5-min Rain = 0
KBY1 141816Z 04001KT 11/M00 A304 RMK A01 T01121002  RH  045%=      5-min Rain = 0
KBY1 141817Z 06003KT 11/M00 A304 RMK A01 T01121001  RH  046%=      5-min Rain = 0
KBY1 141818Z 05006KT 12/00 A304 RMK A01 T01160002  RH  045%=      5-min Rain = 0
KBY1 141819Z 08006KT 12/00 A304 RMK A01 T01180000  RH  044%=      5-min Rain = 0
KBY1 141820Z 07006KT 12/00 A304 RMK A01 T012000-0  RH  044%=      5-min Rain = 0
KBY1 141821Z 09005KT 12/M00 A304 RMK A01 T01201001  RH  043%=      5-min Rain = 0
KBY1 141822Z 10007KT 12/M00 A304 RMK A01 T01201002  RH  043%=      5-min Rain = 0
KBY1 141823Z 06006KT 12/M00 A304 RMK A01 T01201001  RH  043%=      5-min Rain = 0
KBY1 141824Z 07008KT 12/M00 A304 RMK A01 T01221001  RH  043%=      5-min Rain = 0
KBY1 141825Z 06009KT 12/M00 A304 RMK A01 T01221003  RH  042%=      5-min Rain = 0
KBY1 141826Z 06008KT 12/M00 A304 RMK A01 T01211003  RH  042%=      5-min Rain = 0
KBY1 141827Z 05008KT 12/M00 A304 RMK A01 T01191003  RH  043%=      5-min Rain = 0
KBY1 141828Z 03008KT 12/M00 A304 RMK A01 T01181003  RH  043%=      5-min Rain = 0
KBY1 141829Z 05007KT 12/M00 A304 RMK A01 T01181002  RH  044%=      5-min Rain = 0
KBY1 141830Z 03004KT 12/M00 A304 RMK A01 T01181003  RH  043%=      5-min Rain = 0
KBY1 141831Z 04003KT 12/M00 A304 RMK A01 T01161004  RH  044%=      5-min Rain = 0
KBY1 141832Z 07006KT 12/M00 A304 RMK A01 T01171001  RH  044%=      5-min Rain = 0
KBY1 141833Z 09008KT 12/M00 A3039 RMK A01 T01201001  RH  043%=      5-min Rain = 0
KBY1 141834Z 08009KT 12/M00 A3039 RMK A01 T01221001  RH  043%=      5-min Rain = 0
KBY1 141835Z 09007KT 12/M00 A3039 RMK A01 T01191004  RH  043%=      5-min Rain = 0
KBY1 141836Z 09005KT 12/M00 A3039 RMK A01 T01171003  RH  043%=      5-min Rain = 0
KBY1 141837Z 06005KT 12/M00 A3039 RMK A01 T01161003  RH  044%=      5-min Rain = 0
KBY1 141838Z 09007KT 12/M00 A3039 RMK A01 T01181001  RH  044%=      5-min Rain = 0
KBY1 141839Z 09006KT 12/M00 A3039 RMK A01 T01191003  RH  043%=      5-min Rain = 0
KBY1 141840Z 08002KT 12/M00 A3039 RMK A01 T01171004  RH  043%=      5-min Rain = 0
KBY1 141841Z 11001KT 12/M01 A3039 RMK A01 T01171005  RH  043%=      5-min Rain = 0
KBY1 141842Z 11005KT 12/M00 A3039 RMK A01 T01181004  RH  043%=      5-min Rain = 0
KBY1 141843Z 10005KT 12/M00 A3039 RMK A01 T01191004  RH  043%=      5-min Rain = 0
KBY1 141844Z 07008KT 12/M00 A3039 RMK A01 T01201003  RH  043%=      5-min Rain = 0
KBY1 141845Z 07007KT 12/M00 A3039 RMK A01 T01211004  RH  042%=      5-min Rain = 0
KBY1 141846Z 08006KT 12/M00 A3039 RMK A01 T01211003  RH  042%=      5-min Rain = 0
KBY1 141847Z 06007KT 12/M00 A3039 RMK A01 T01211003  RH  042%=      5-min Rain = 0
KBY1 141848Z 07006KT 12/M00 A3039 RMK A01 T01211003  RH  042%=      5-min Rain = 0
KBY1 141849Z 06004KT 12/M00 A3039 RMK A01 T01221001  RH  043%=      5-min Rain = 0
KBY1 141850Z 03004KT 12/M00 A3039 RMK A01 T01221003  RH  042%=      5-min Rain = 0
KBY1 141851Z 35001KT 12/M01 A3039 RMK A01 T01211005  RH  042%=      5-min Rain = 0
KBY1 141852Z 02001KT 12/M01 A3039 RMK A01 T01191005  RH  042%=      5-min Rain = 0
KBY1 141853Z 05005KT 12/M00 A3039 RMK A01 T01191004  RH  043%=      5-min Rain = 0
KBY1 141854Z 04005KT 12/M00 A3039 RMK A01 T01231001  RH  043%=      5-min Rain = 0
KBY1 141855Z 07002KT 12/M00 A3039 RMK A01 T01231003  RH  042%=      5-min Rain = 0
KBY1 141856Z 11001KT 12/M00 A3038 RMK A01 T01221004  RH  042%=      5-min Rain = 0
KBY1 141857Z 07000KT 12/M00 A3038 RMK A01 T01231004  RH  042%=      5-min Rain = 0
KBY1 141858Z 04004KT 12/M00 A3038 RMK A01 T01241002  RH  042%=      5-min Rain = 0
KBY1 141859Z 04004KT 13/M01 A3038 RMK A01 T01251006  RH  040%=      5-min Rain = 0
KBY1 141900Z 05006KT 13/M01 A3038 RMK A01 T01261007  RH  040%=      5-min Rain = 0
KBY1 141901Z 04007KT 13/M01 A3038 RMK A01 T01261007  RH  040%=      5-min Rain = 0
KBY1 141902Z 06005KT 12/M01 A3038 RMK A01 T01241009  RH  040%=      5-min Rain = 0
KBY1 141903Z 05002KT 12/M01 A3038 RMK A01 T01221009  RH  041%=      5-min Rain = 0
KBY1 141904Z 35003KT 12/M01 A3038 RMK A01 T01211009  RH  041%=      5-min Rain = 0
KBY1 141905Z 34003KT 12/M01 A3038 RMK A01 T01221009  RH  040%=      5-min Rain = 0
KBY1 141906Z 35004KT 12/M01 A3038 RMK A01 T01231009  RH  040%=      5-min Rain = 0
KBY1 141907Z 05005KT 12/M01 A3038 RMK A01 T01241008  RH  040%=      5-min Rain = 0
KBY1 141908Z 08005KT 13/M01 A3038 RMK A01 T01251006  RH  040%=      5-min Rain = 0
KBY1 141909Z 08007KT 13/M01 A3038 RMK A01 T01251007  RH  040%=      5-min Rain = 0
KBY1 141910Z 05007KT 12/M01 A3038 RMK A01 T01241006  RH  040%=      5-min Rain = 0
KBY1 141911Z 04005KT 13/M01 A3038 RMK A01 T01251005  RH  041%=      5-min Rain = 0
KBY1 141912Z 07003KT 13/M00 A3038 RMK A01 T01271004  RH  040%=      5-min Rain = 0
KBY1 141913Z 09001KT 13/M01 A3038 RMK A01 T01271006  RH  040%=      5-min Rain = 0
KBY1 141914Z 12005KT 13/M01 A3038 RMK A01 T01271006  RH  040%=      5-min Rain = 0
KBY1 141915Z 12006KT 13/M01 A3037 RMK A01 T01271005  RH  040%=      5-min Rain = 0
KBY1 141916Z 13004KT 13/M01 A3037 RMK A01 T01281006  RH  040%=      5-min Rain = 0
KBY1 141917Z 14003KT 13/M01 A3037 RMK A01 T01271007  RH  040%=      5-min Rain = 0
KBY1 141918Z 11003KT 13/M01 A3037 RMK A01 T01281005  RH  040%=      5-min Rain = 0
KBY1 141919Z 11004KT 13/M01 A3037 RMK A01 T01291006  RH  039%=      5-min Rain = 0
KBY1 141920Z 12003KT 13/M01 A3037 RMK A01 T01291006  RH  039%=      5-min Rain = 0
KBY1 141921Z 09001KT 13/M01 A3037 RMK A01 T01291007  RH  039%=      5-min Rain = 0
KBY1 141922Z 12005KT 13/M01 A3037 RMK A01 T01291006  RH  039%=      5-min Rain = 0
KBY1 141923Z 11007KT 13/M01 A3037 RMK A01 T01301005  RH  040%=      5-min Rain = 0
KBY1 141924Z 11007KT 13/M00 A3037 RMK A01 T01331003  RH  039%=      5-min Rain = 0
KBY1 141925Z 12006KT 13/M01 A3037 RMK A01 T01341005  RH  038%=      5-min Rain = 0
KBY1 141926Z 12006KT 13/M00 A3037 RMK A01 T01321004  RH  039%=      5-min Rain = 0
KBY1 141927Z 13007KT 13/M00 A3037 RMK A01 T01341004  RH  039%=      5-min Rain = 0
KBY1 141928Z 13006KT 13/M01 A3037 RMK A01 T01321005  RH  039%=      5-min Rain = 0
KBY1 141929Z 15005KT 13/M01 A3037 RMK A01 T01311006  RH  039%=      5-min Rain = 0
KBY1 141930Z 18002KT 13/M01 A3037 RMK A01 T01301007  RH  039%=      5-min Rain = 0
KBY1 141931Z 25003KT 13/M01 A3037 RMK A01 T01291007  RH  039%=      5-min Rain = 0
KBY1 141932Z 27003KT 13/M01 A3037 RMK A01 T01281007  RH  039%=      5-min Rain = 0
KBY1 141933Z 10003G8KT 13/M01 A3037 RMK A01 T01281007  RH  039%=      5-min Rain = 0
KBY1 141934Z 10005KT 13/M01 A3037 RMK A01 T01301006  RH  039%=      5-min Rain = 0
KBY1 141935Z 10007KT 13/M01 A3037 RMK A01 T01311007  RH  038%=      5-min Rain = 0
KBY1 141936Z 12005KT 13/M01 A3037 RMK A01 T01311008  RH  038%=      5-min Rain = 0
KBY1 141937Z 11004KT 13/M01 A3037 RMK A01 T01311008  RH  038%=      5-min Rain = 0
KBY1 141938Z 14001KT 13/M01 A3037 RMK A01 T01291009  RH  038%=      5-min Rain = 0
KBY1 141939Z 13001G8KT 13/M01 A3037 RMK A01 T01281010  RH  038%=      5-min Rain = 0
KBY1 141940Z 13007KT 13/M01 A3037 RMK A01 T01291010  RH  038%=      5-min Rain = 0
KBY1 141941Z 14005KT 13/M01 A3037 RMK A01 T01301010  RH  038%=      5-min Rain = 0
KBY1 141942Z 14005KT 13/M01 A3036 RMK A01 T01311009  RH  038%=      5-min Rain = 0
KBY1 141943Z 15005KT 13/M01 A3036 RMK A01 T01321010  RH  037%=      5-min Rain = 0
KBY1 141944Z 15005KT 14/M01 A3036 RMK A01 T01361007  RH  037%=      5-min Rain = 0
KBY1 141945Z 13008KT 14/M01 A3036 RMK A01 T01391009  RH  036%=      5-min Rain = 0
KBY1 141946Z 09008KT 14/M01 A3036 RMK A01 T01391009  RH  036%=      5-min Rain = 0
KBY1 141947Z 09007KT 14/M01 A3036 RMK A01 T01361011  RH  036%=      5-min Rain = 0
KBY1 141948Z 10006KT 14/M01 A3036 RMK A01 T01351009  RH  037%=      5-min Rain = 0
KBY1 141949Z 10007KT 14/M01 A3036 RMK A01 T01381008  RH  036%=      5-min Rain = 0
KBY1 141950Z 10007KT 14/M01 A3036 RMK A01 T01371013  RH  036%=      5-min Rain = 0
KBY1 141951Z 11009KT 14/M01 A3036 RMK A01 T01351011  RH  036%=      5-min Rain = 0
KBY1 141952Z 11007KT 13/M01 A3036 RMK A01 T01341011  RH  037%=      5-min Rain = 0
KBY1 141953Z 12006KT 13/M01 A3036 RMK A01 T01331009  RH  037%=      5-min Rain = 0
KBY1 141954Z 08004KT 13/M01 A3036 RMK A01 T01331010  RH  037%=      5-min Rain = 0
KBY1 141955Z 06006KT 13/M01 A3036 RMK A01 T01331010  RH  037%=      5-min Rain = 0
KBY1 141956Z 06005KT 13/M01 A3036 RMK A01 T01341011  RH  037%=      5-min Rain = 0
KBY1 141957Z 07006KT 13/M01 A3036 RMK A01 T01341009  RH  037%=      5-min Rain = 0
KBY1 141958Z 07005KT 14/M01 A3036 RMK A01 T01351010  RH  037%=      5-min Rain = 0
KBY1 141959Z 05006KT 14/M01 A3036 RMK A01 T01361011  RH  036%=      5-min Rain = 0
KBY1 142000Z 04005KT 14/M01 A3036 RMK A01 T01351013  RH  036%=      5-min Rain = 0
KBY1 142001Z 01004KT 13/M02 A3036 RMK A01 T01331015  RH  036%=      5-min Rain = 0
KBY1 142002Z 01003KT 13/M01 A3036 RMK A01 T01311014  RH  037%=      5-min Rain = 0
KBY1 142003Z 00002KT 13/M01 A3036 RMK A01 T01311014  RH  037%=      5-min Rain = 0
KBY1 142004Z 03002KT 13/M01 A3036 RMK A01 T01331011  RH  037%=      5-min Rain = 0
KBY1 142005Z 12004KT 14/M01 A3036 RMK A01 T01371010  RH  036%=      5-min Rain = 0
KBY1 142006Z 10003KT 14/M01 A3036 RMK A01 T01381012  RH  035%=      5-min Rain = 0
KBY1 142007Z 12004KT 14/M01 A3036 RMK A01 T01381013  RH  035%=      5-min Rain = 0
KBY1 142008Z 13002KT 14/M01 A3036 RMK A01 T01361013  RH  036%=      5-min Rain = 0
KBY1 142009Z 12003KT 14/M01 A3036 RMK A01 T01371013  RH  036%=      5-min Rain = 0
KBY1 142010Z 08002KT 14/M01 A3035 RMK A01 T01361014  RH  035%=      5-min Rain = 0
KBY1 142011Z 07005KT 14/M01 A3035 RMK A01 T01361014  RH  035%=      5-min Rain = 0
KBY1 142012Z 04008KT 14/M02 A3035 RMK A01 T01371015  RH  035%=      5-min Rain = 0
KBY1 142013Z 05010KT 14/M01 A3035 RMK A01 T01381014  RH  035%=      5-min Rain = 0
KBY1 142014Z 07007KT 14/M01 A3035 RMK A01 T01391013  RH  035%=      5-min Rain = 0
KBY1 142015Z 09008KT 14/M01 A3035 RMK A01 T01381012  RH  035%=      5-min Rain = 0
KBY1 142016Z 10005KT 14/M01 A3035 RMK A01 T01371013  RH  035%=      5-min Rain = 0
KBY1 142017Z 09005KT 14/M01 A3035 RMK A01 T01361012  RH  036%=      5-min Rain = 0
KBY1 142018Z 06004KT 14/M01 A3035 RMK A01 T01371014  RH  035%=      5-min Rain = 0
KBY1 142019Z 05004KT 14/M02 A3035 RMK A01 T01361015  RH  035%=      5-min Rain = 0
KBY1 142020Z 04004KT 14/M02 A3035 RMK A01 T01351015  RH  035%=      5-min Rain = 0
KBY1 142021Z 05002KT 13/M01 A3035 RMK A01 T01341014  RH  036%=      5-min Rain = 0
KBY1 142022Z 05003KT 14/M01 A3035 RMK A01 T01351013  RH  036%=      5-min Rain = 0
KBY1 142023Z 08003KT 14/M01 A3035 RMK A01 T01361012  RH  036%=      5-min Rain = 0
KBY1 142024Z 12004KT 14/M01 A3035 RMK A01 T01371012  RH  036%=      5-min Rain = 0
KBY1 142025Z 16005KT 14/M01 A3035 RMK A01 T01381010  RH  036%=      5-min Rain = 0
KBY1 142026Z 17005KT 14/M01 A3035 RMK A01 T01391010  RH  036%=      5-min Rain = 0
KBY1 142027Z 14006KT 14/M01 A3035 RMK A01 T01391010  RH  036%=      5-min Rain = 0
KBY1 142028Z 14004KT 14/M01 A3035 RMK A01 T01381010  RH  036%=      5-min Rain = 0
KBY1 142029Z 16002KT 14/M01 A3035 RMK A01 T01371011  RH  036%=      5-min Rain = 0
KBY1 142030Z 15004KT 14/M01 A3035 RMK A01 T01371010  RH  036%=      5-min Rain = 0
KBY1 142031Z 18004KT 14/M01 A3035 RMK A01 T01381009  RH  036%=      5-min Rain = 0
KBY1 142032Z 19003KT 14/M01 A3035 RMK A01 T01381010  RH  036%=      5-min Rain = 0
KBY1 142033Z 20004KT 14/M01 A3035 RMK A01 T01381010  RH  036%=      5-min Rain = 0
KBY1 142034Z 18005KT 14/M01 A3035 RMK A01 T01381010  RH  036%=      5-min Rain = 0
KBY1 142035Z 17004KT 14/M01 A3035 RMK A01 T01391010  RH  036%=      5-min Rain = 0
KBY1 142036Z 12002KT 14/M01 A3035 RMK A01 T01391010  RH  036%=      5-min Rain = 0
KBY1 142037Z 10004KT 14/M01 A3035 RMK A01 T01391010  RH  036%=      5-min Rain = 0
KBY1 142038Z 13004KT 14/M01 A3035 RMK A01 T01391010  RH  036%=      5-min Rain = 0
KBY1 142039Z 12002KT 14/M01 A3035 RMK A01 T01391010  RH  036%=      5-min Rain = 0
KBY1 142040Z 10002KT 14/M01 A3035 RMK A01 T01401011  RH  036%=      5-min Rain = 0
KBY1 142041Z 11002KT 14/M01 A3035 RMK A01 T01401012  RH  035%=      5-min Rain = 0
KBY1 142042Z 18001KT 14/M01 A3035 RMK A01 T01401013  RH  035%=      5-min Rain = 0
KBY1 142043Z 01002KT 14/M01 A3035 RMK A01 T01411011  RH  035%=      5-min Rain = 0
KBY1 142044Z 02003KT 14/M01 A3035 RMK A01 T01421012  RH  034%=      5-min Rain = 0
KBY1 142045Z 04003KT 14/M01 A3035 RMK A01 T01411012  RH  035%=      5-min Rain = 0
KBY1 142046Z 06003KT 14/M01 A3035 RMK A01 T01421012  RH  035%=      5-min Rain = 0
KBY1 142047Z 08003KT 14/M01 A3035 RMK A01 T01411012  RH  035%=      5-min Rain = 0
KBY1 142048Z 09004KT 14/M01 A3035 RMK A01 T01391014  RH  035%=      5-min Rain = 0
KBY1 142049Z 09006KT 14/M01 A3035 RMK A01 T01391012  RH  035%=      5-min Rain = 0
KBY1 142050Z 09006KT 14/M01 A3035 RMK A01 T01391011  RH  035%=      5-min Rain = 0
KBY1 142051Z 10004KT 14/M01 A3035 RMK A01 T01391010  RH  036%=      5-min Rain = 0
KBY1 142052Z 09007KT 14/M01 A3035 RMK A01 T01411008  RH  036%=      5-min Rain = 0
KBY1 142053Z 10006KT 14/M01 A3035 RMK A01 T01421010  RH  035%=      5-min Rain = 0
KBY1 142054Z 10004KT 14/M01 A3035 RMK A01 T01401010  RH  035%=      5-min Rain = 0
KBY1 142055Z 10002KT 14/M01 A3035 RMK A01 T01401011  RH  035%=      5-min Rain = 0
KBY1 142056Z 13001KT 14/M01 A3035 RMK A01 T01391011  RH  035%=      5-min Rain = 0
KBY1 142057Z 36001KT 14/M01 A3035 RMK A01 T01391012  RH  035%=      5-min Rain = 0
KBY1 142058Z 36001KT 14/M01 A3035 RMK A01 T01391012  RH  035%=      5-min Rain = 0
KBY1 142059Z 23001KT 14/M01 A3035 RMK A01 T01391011  RH  035%=      5-min Rain = 0
KBY1 142100Z 23002KT 14/M01 A3034 RMK A01 T01401011  RH  035%=      5-min Rain = 0
KBY1 142101Z 21003KT 14/M01 A3034 RMK A01 T01411010  RH  035%=      5-min Rain = 0
KBY1 142102Z 30001KT 14/M01 A3034 RMK A01 T01411011  RH  035%=      5-min Rain = 0
KBY1 142103Z 33001KT 14/M01 A3034 RMK A01 T01401012  RH  035%=      5-min Rain = 0
KBY1 142104Z 14000KT 14/M01 A3034 RMK A01 T01411009  RH  036%=      5-min Rain = 0
KBY1 142105Z 11003KT 14/M01 A3034 RMK A01 T01431008  RH  035%=      5-min Rain = 0
KBY1 142106Z 10003KT 15/M01 A3035 RMK A01 T01451008  RH  035%=      5-min Rain = 0
KBY1 142107Z 10002KT 14/M01 A3035 RMK A01 T01431010  RH  035%=      5-min Rain = 0
KBY1 142108Z 14003KT 14/M01 A3035 RMK A01 T01411010  RH  035%=      5-min Rain = 0
KBY1 142109Z 17003KT 14/M01 A3035 RMK A01 T01411009  RH  036%=      5-min Rain = 0
KBY1 142110Z 16003KT 14/M01 A3035 RMK A01 T01421009  RH  035%=      5-min Rain = 0
KBY1 142111Z 16003KT 14/M01 A3035 RMK A01 T01421009  RH  035%=      5-min Rain = 0
KBY1 142112Z 14001KT 14/M01 A3035 RMK A01 T01411010  RH  035%=      5-min Rain = 0
KBY1 142113Z 20001KT 14/M01 A3035 RMK A01 T01411009  RH  036%=      5-min Rain = 0
KBY1 142114Z 22001KT 14/M01 A3035 RMK A01 T01431008  RH  035%=      5-min Rain = 0
KBY1 142115Z 21003KT 15/M01 A3035 RMK A01 T01451009  RH  035%=      5-min Rain = 0
KBY1 142116Z 16007KT 15/M01 A3034 RMK A01 T01451009  RH  035%=      5-min Rain = 0
KBY1 142117Z 10006KT 14/M01 A3034 RMK A01 T01431010  RH  035%=      5-min Rain = 0
KBY1 142118Z 11002KT 14/M01 A3035 RMK A01 T01421010  RH  035%=      5-min Rain = 0
KBY1 142119Z 12004KT 14/M01 A3035 RMK A01 T01431009  RH  035%=      5-min Rain = 0
KBY1 142120Z 12005KT 14/M01 A3035 RMK A01 T01431010  RH  035%=      5-min Rain = 0
KBY1 142121Z 14003KT 14/M01 A3035 RMK A01 T01411011  RH  035%=      5-min Rain = 0
KBY1 142122Z 15003KT 14/M01 A3034 RMK A01 T01411010  RH  035%=      5-min Rain = 0
KBY1 142123Z 12004KT 14/M01 A3035 RMK A01 T01431008  RH  035%=      5-min Rain = 0
KBY1 142124Z 13004KT 14/M01 A3035 RMK A01 T01431010  RH  035%=      5-min Rain = 0
KBY1 142125Z 10005KT 14/M01 A3035 RMK A01 T01421010  RH  035%=      5-min Rain = 0
KBY1 142126Z 11003KT 14/M01 A3035 RMK A01 T01411010  RH  035%=      5-min Rain = 0
KBY1 142127Z 11004KT 14/M01 A3035 RMK A01 T01421009  RH  035%=      5-min Rain = 0
KBY1 142128Z 09004KT 14/M01 A3035 RMK A01 T01421011  RH  035%=      5-min Rain = 0
KBY1 142129Z 11005KT 14/M01 A3035 RMK A01 T01411011  RH  035%=      5-min Rain = 0
KBY1 142130Z 11003KT 14/M01 A3035 RMK A01 T01391012  RH  035%=      5-min Rain = 0
KBY1 142131Z 11004KT 14/M01 A3035 RMK A01 T01381011  RH  036%=      5-min Rain = 0
KBY1 142132Z 14003KT 14/M01 A3035 RMK A01 T01381011  RH  036%=      5-min Rain = 0
KBY1 142133Z 14003KT 14/M01 A3034 RMK A01 T01391011  RH  036%=      5-min Rain = 0
KBY1 142134Z 15004KT 14/M01 A3034 RMK A01 T01391012  RH  035%=      5-min Rain = 0
KBY1 142135Z 15003KT 14/M01 A3034 RMK A01 T01401011  RH  035%=      5-min Rain = 0
KBY1 142136Z 16003KT 14/M01 A3034 RMK A01 T01421010  RH  035%=      5-min Rain = 0
KBY1 142137Z 16002KT 14/M01 A3034 RMK A01 T01431012  RH  034%=      5-min Rain = 0
KBY1 142138Z 19001KT 14/M01 A3034 RMK A01 T01431013  RH  034%=      5-min Rain = 0
KBY1 142139Z 27001KT 14/M01 A3034 RMK A01 T01431012  RH  034%=      5-min Rain = 0
KBY1 142140Z 18000KT 14/M01 A3034 RMK A01 T01431012  RH  034%=      5-min Rain = 0
KBY1 142141Z 16002KT 15/M01 A3034 RMK A01 T01451011  RH  034%=      5-min Rain = 0
KBY1 142142Z 13006KT 15/M01 A3034 RMK A01 T01461011  RH  034%=      5-min Rain = 0
KBY1 142143Z 13006KT 15/M01 A3034 RMK A01 T01461011  RH  034%=      5-min Rain = 0
KBY1 142144Z 13006KT 14/M01 A3034 RMK A01 T01441012  RH  034%=      5-min Rain = 0
KBY1 142145Z 13005KT 14/M01 A3034 RMK A01 T01421012  RH  034%=      5-min Rain = 0
KBY1 142146Z 13004KT 14/M01 A3034 RMK A01 T01401013  RH  035%=      5-min Rain = 0
KBY1 142147Z 13003KT 14/M01 A3034 RMK A01 T01401012  RH  035%=      5-min Rain = 0
KBY1 142148Z 14002KT 14/M01 A3034 RMK A01 T01411013  RH  035%=      5-min Rain = 0
KBY1 142149Z 15001KT 14/M01 A3034 RMK A01 T01401013  RH  035%=      5-min Rain = 0
KBY1 142150Z 16001KT 14/M01 A3034 RMK A01 T01411012  RH  035%=      5-min Rain = 0
KBY1 142151Z 17001KT 14/M01 A3034 RMK A01 T01411013  RH  034%=      5-min Rain = 0
KBY1 142152Z 15001KT 14/M01 A3034 RMK A01 T01421013  RH  034%=      5-min Rain = 0
KBY1 142153Z 18002KT 14/M01 A3034 RMK A01 T01431012  RH  034%=      5-min Rain = 0
KBY1 142154Z 17003KT 14/M01 A3034 RMK A01 T01441012  RH  034%=      5-min Rain = 0
KBY1 142155Z 16004KT 15/M01 A3034 RMK A01 T01451011  RH  034%=      5-min Rain = 0
KBY1 142156Z 14005KT 15/M01 A3034 RMK A01 T01451012  RH  034%=      5-min Rain = 0
KBY1 142157Z 15005KT 15/M01 A3034 RMK A01 T01451011  RH  034%=      5-min Rain = 0
KBY1 142158Z 16004KT 15/M01 A3034 RMK A01 T01461010  RH  034%=      5-min Rain = 0
KBY1 142159Z 13003KT 15/M01 A3034 RMK A01 T01461011  RH  034%=      5-min Rain = 0
KBY1 142200Z 11003KT 15/M01 A3034 RMK A01 T01461011  RH  034%=      5-min Rain = 0
KBY1 142201Z 11002KT 14/M01 A3034 RMK A01 T01441012  RH  034%=      5-min Rain = 0
KBY1 142202Z 12001KT 14/M01 A3034 RMK A01 T01431013  RH  034%=      5-min Rain = 0
KBY1 142203Z 16002KT 14/M01 A3034 RMK A01 T01421012  RH  034%=      5-min Rain = 0
KBY1 142204Z 16005KT 14/M01 A3034 RMK A01 T01441012  RH  034%=      5-min Rain = 0
KBY1 142205Z 17004KT 14/M01 A3034 RMK A01 T01441013  RH  034%=      5-min Rain = 0
KBY1 142206Z 16003KT 14/M01 A3034 RMK A01 T01441014  RH  034%=      5-min Rain = 0
KBY1 142207Z 16004KT 14/M01 A3034 RMK A01 T01421014  RH  034%=      5-min Rain = 0
KBY1 142208Z 17003KT 14/M01 A3034 RMK A01 T01421014  RH  034%=      5-min Rain = 0
KBY1 142209Z 18005KT 14/M01 A3034 RMK A01 T01421014  RH  034%=      5-min Rain = 0
KBY1 142210Z 17004KT 14/M01 A3034 RMK A01 T01421014  RH  034%=      5-min Rain = 0
KBY1 142211Z 16005KT 14/M01 A3034 RMK A01 T01421014  RH  034%=      5-min Rain = 0
KBY1 142212Z 13005KT 14/M01 A3034 RMK A01 T01421012  RH  035%=      5-min Rain = 0
KBY1 142213Z 14005KT 14/M01 A3034 RMK A01 T01421013  RH  034%=      5-min Rain = 0
KBY1 142214Z 13005KT 14/M01 A3034 RMK A01 T01411013  RH  035%=      5-min Rain = 0
KBY1 142215Z 13003KT 14/M01 A3034 RMK A01 T01391013  RH  035%=      5-min Rain = 0
KBY1 142216Z 12002KT 14/M01 A3034 RMK A01 T01391013  RH  035%=      5-min Rain = 0
KBY1 142217Z 12003KT 14/M01 A3034 RMK A01 T01391014  RH  035%=      5-min Rain = 0
KBY1 142218Z 14003KT 14/M02 A3034 RMK A01 T01391015  RH  035%=      5-min Rain = 0
KBY1 142219Z 11004KT 14/M01 A3034 RMK A01 T01391014  RH  035%=      5-min Rain = 0
KBY1 142220Z 11004KT 14/M01 A3034 RMK A01 T01401014  RH  035%=      5-min Rain = 0
KBY1 142221Z 11004KT 14/M01 A3034 RMK A01 T01401014  RH  035%=      5-min Rain = 0
KBY1 142222Z 11004KT 14/M02 A3034 RMK A01 T01391015  RH  035%=      5-min Rain = 0
KBY1 142223Z 12004KT 14/M02 A3034 RMK A01 T01381015  RH  035%=      5-min Rain = 0
KBY1 142224Z 11003KT 14/M02 A3034 RMK A01 T01381015  RH  035%=      5-min Rain = 0
KBY1 142225Z 11002KT 14/M02 A3034 RMK A01 T01371016  RH  035%=      5-min Rain = 0
KBY1 142226Z 10001KT 14/M02 A3034 RMK A01 T01361017  RH  035%=      5-min Rain = 0
KBY1 142227Z 00000KT 14/M02 A3034 RMK A01 T01371016  RH  035%=      5-min Rain = 0
KBY1 142228Z 04000KT 14/M02 A3034 RMK A01 T01381016  RH  034%=      5-min Rain = 0
KBY1 142229Z 05002KT 14/M02 A3034 RMK A01 T01391016  RH  034%=      5-min Rain = 0
KBY1 142230Z 04001KT 14/M02 A3034 RMK A01 T01391016  RH  034%=      5-min Rain = 0
KBY1 142231Z 03000KT 14/M02 A3034 RMK A01 T01391016  RH  034%=      5-min Rain = 0
KBY1 142232Z 00000KT 14/M02 A3034 RMK A01 T01401015  RH  034%=      5-min Rain = 0
KBY1 142233Z 20001KT 14/M02 A3034 RMK A01 T01421015  RH  034%=      5-min Rain = 0
KBY1 142234Z 17003KT 14/M02 A3034 RMK A01 T01431015  RH  034%=      5-min Rain = 0
KBY1 142235Z 18004KT 14/M02 A3034 RMK A01 T01431015  RH  034%=      5-min Rain = 0
KBY1 142236Z 18002KT 14/M02 A3034 RMK A01 T01431015  RH  034%=      5-min Rain = 0
KBY1 142237Z 20001KT 14/M02 A3034 RMK A01 T01431015  RH  034%=      5-min Rain = 0
KBY1 142238Z 19002KT 14/M01 A3034 RMK A01 T01431014  RH  034%=      5-min Rain = 0
KBY1 142239Z 15002KT 14/M01 A3034 RMK A01 T01431014  RH  034%=      5-min Rain = 0
KBY1 142240Z 17001KT 14/M01 A3034 RMK A01 T01421014  RH  034%=      5-min Rain = 0
KBY1 142241Z 19002KT 14/M01 A3034 RMK A01 T01421014  RH  034%=      5-min Rain = 0
KBY1 142242Z 20004KT 14/M01 A3034 RMK A01 T01421014  RH  034%=      5-min Rain = 0
KBY1 142243Z 20003KT 14/M01 A3034 RMK A01 T01411014  RH  034%=      5-min Rain = 0
KBY1 142244Z 20004KT 14/M01 A3034 RMK A01 T01401014  RH  034%=      5-min Rain = 0
KBY1 142245Z 20003KT 14/M01 A3034 RMK A01 T01391014  RH  035%=      5-min Rain = 0
KBY1 142246Z 26001KT 14/M01 A3034 RMK A01 T01381014  RH  035%=      5-min Rain = 0
KBY1 142247Z 29001KT 14/M01 A3034 RMK A01 T01381014  RH  035%=      5-min Rain = 0
KBY1 142248Z 28001KT 14/M01 A3034 RMK A01 T01381014  RH  035%=      5-min Rain = 0
KBY1 142249Z 24001KT 14/M01 A3034 RMK A01 T01391014  RH  035%=      5-min Rain = 0
KBY1 142250Z 19002KT 14/M01 A3034 RMK A01 T01391013  RH  035%=      5-min Rain = 0
KBY1 142251Z 19002KT 14/M01 A3035 RMK A01 T01401013  RH  035%=      5-min Rain = 0
KBY1 142252Z 22002KT 14/M01 A3035 RMK A01 T01391013  RH  035%=      5-min Rain = 0
KBY1 142253Z 22002KT 14/M01 A3035 RMK A01 T01391013  RH  035%=      5-min Rain = 0
KBY1 142254Z 18002KT 14/M01 A3035 RMK A01 T01391013  RH  035%=      5-min Rain = 0
KBY1 142255Z 14003KT 14/M01 A3035 RMK A01 T01391012  RH  035%=      5-min Rain = 0
KBY1 142256Z 14003KT 14/M01 A3035 RMK A01 T01381012  RH  035%=      5-min Rain = 0
KBY1 142257Z 15004KT 14/M01 A3035 RMK A01 T01371012  RH  036%=      5-min Rain = 0
KBY1 142258Z 15004KT 14/M01 A3035 RMK A01 T01351012  RH  036%=      5-min Rain = 0
KBY1 142259Z 16003KT 14/M01 A3035 RMK A01 T01351012  RH  036%=      5-min Rain = 0
KBY1 142300Z 17002KT 13/M01 A3035 RMK A01 T01341012  RH  036%=      5-min Rain = 0
KBY1 142301Z 20004KT 14/M01 A3035 RMK A01 T01351012  RH  036%=      5-min Rain = 0
KBY1 142302Z 19004KT 13/M01 A3035 RMK A01 T01341011  RH  037%=      5-min Rain = 0
KBY1 142303Z 16004KT 13/M01 A3035 RMK A01 T01341011  RH  037%=      5-min Rain = 0
KBY1 142304Z 15003KT 13/M01 A3035 RMK A01 T01331011  RH  037%=      5-min Rain = 0
KBY1 142305Z 16003KT 13/M01 A3035 RMK A01 T01321011  RH  037%=      5-min Rain = 0
KBY1 142306Z 16004KT 13/M01 A3035 RMK A01 T01331011  RH  037%=      5-min Rain = 0
KBY1 142307Z 17004KT 13/M01 A3035 RMK A01 T01321010  RH  037%=      5-min Rain = 0
KBY1 142308Z 16004KT 13/M01 A3035 RMK A01 T01321010  RH  038%=      5-min Rain = 0
KBY1 142309Z 15003KT 13/M01 A3035 RMK A01 T01311010  RH  038%=      5-min Rain = 0
KBY1 142310Z 15004KT 13/M01 A3035 RMK A01 T01311010  RH  038%=      5-min Rain = 0
KBY1 142311Z 17003KT 13/M01 A3035 RMK A01 T01311009  RH  038%=      5-min Rain = 0
KBY1 142312Z 18006KT 13/M01 A3035 RMK A01 T01301009  RH  038%=      5-min Rain = 0
KBY1 142313Z 19005KT 13/M01 A3035 RMK A01 T01291009  RH  038%=      5-min Rain = 0
KBY1 142314Z 19005KT 13/M01 A3035 RMK A01 T01281010  RH  038%=      5-min Rain = 0
KBY1 142315Z 19005KT 13/M01 A3035 RMK A01 T01271010  RH  039%=      5-min Rain = 0
KBY1 142316Z 19004KT 13/M01 A3035 RMK A01 T01261010  RH  039%=      5-min Rain = 0
KBY1 142317Z 18004KT 13/M01 A3035 RMK A01 T01261010  RH  039%=      5-min Rain = 0
KBY1 142318Z 18004KT 13/M01 A3035 RMK A01 T01251010  RH  039%=      5-min Rain = 0
KBY1 142319Z 18004KT 12/M01 A3035 RMK A01 T01241010  RH  040%=      5-min Rain = 0
KBY1 142320Z 19004KT 12/M01 A3035 RMK A01 T01231010  RH  040%=      5-min Rain = 0
KBY1 142321Z 18003KT 12/M01 A3035 RMK A01 T01231009  RH  040%=      5-min Rain = 0
KBY1 142322Z 18004KT 12/M01 A3035 RMK A01 T01221010  RH  040%=      5-min Rain = 0
KBY1 142323Z 18003KT 12/M01 A3035 RMK A01 T01211010  RH  040%=      5-min Rain = 0
KBY1 142324Z 18004KT 12/M01 A3035 RMK A01 T01201010  RH  041%=      5-min Rain = 0
KBY1 142325Z 18004KT 12/M01 A3035 RMK A01 T01191010  RH  041%=      5-min Rain = 0
KBY1 142326Z 18004KT 12/M01 A3035 RMK A01 T01181010  RH  041%=      5-min Rain = 0
KBY1 142327Z 17003KT 12/M01 A3035 RMK A01 T01171011  RH  041%=      5-min Rain = 0
KBY1 142328Z 17003KT 12/M01 A3035 RMK A01 T01171011  RH  041%=      5-min Rain = 0
KBY1 142329Z 17003KT 12/M01 A3035 RMK A01 T01161011  RH  041%=      5-min Rain = 0
KBY1 142330Z 17004KT 12/M01 A3035 RMK A01 T01151011  RH  042%=      5-min Rain = 0
KBY1 142331Z 17003KT 11/M01 A3035 RMK A01 T01131012  RH  042%=      5-min Rain = 0
KBY1 142332Z 17003KT 11/M01 A3035 RMK A01 T01111012  RH  042%=      5-min Rain = 0
KBY1 142333Z 17003KT 11/M01 A3035 RMK A01 T01101012  RH  043%=      5-min Rain = 0
KBY1 142334Z 17003KT 11/M01 A3035 RMK A01 T01081012  RH  043%=      5-min Rain = 0
KBY1 142335Z 17003KT 11/M01 A3035 RMK A01 T01071012  RH  044%=      5-min Rain = 0
KBY1 142336Z 17003KT 11/M01 A3035 RMK A01 T01061012  RH  044%=      5-min Rain = 0
KBY1 142337Z 17003KT 11/M01 A3035 RMK A01 T01061012  RH  044%=      5-min Rain = 0
KBY1 142338Z 18003KT 11/M01 A3035 RMK A01 T01061012  RH  044%=      5-min Rain = 0
KBY1 142339Z 19003KT 11/M01 A3035 RMK A01 T01051011  RH  044%=      5-min Rain = 0
KBY1 142340Z 19003KT 11/M01 A3035 RMK A01 T01051011  RH  044%=      5-min Rain = 0
KBY1 142341Z 18004KT 11/M01 A3035 RMK A01 T01051011  RH  044%=      5-min Rain = 0
KBY1 142342Z 18004KT 11/M01 A3036 RMK A01 T01051011  RH  044%=      5-min Rain = 0
KBY1 142343Z 18003KT 10/M01 A3036 RMK A01 T01041012  RH  044%=      5-min Rain = 0
KBY1 142344Z 19003KT 10/M01 A3036 RMK A01 T01041012  RH  044%=      5-min Rain = 0
KBY1 142345Z 19003KT 10/M01 A3036 RMK A01 T01031012  RH  045%=      5-min Rain = 0
KBY1 142346Z 19003KT 10/M01 A3036 RMK A01 T01031012  RH  045%=      5-min Rain = 0
KBY1 142347Z 19003KT 10/M01 A3036 RMK A01 T01021013  RH  045%=      5-min Rain = 0
KBY1 142348Z 19002KT 10/M01 A3036 RMK A01 T01021012  RH  045%=      5-min Rain = 0
KBY1 142349Z 20002KT 10/M01 A3036 RMK A01 T01011012  RH  045%=      5-min Rain = 0
KBY1 142350Z 19002KT 10/M01 A3036 RMK A01 T01001013  RH  045%=      5-min Rain = 0
KBY1 142351Z 21002KT 10/M01 A3036 RMK A01 T00991013  RH  046%=      5-min Rain = 0
KBY1 142352Z 21002KT 10/M01 A3036 RMK A01 T00981013  RH  046%=      5-min Rain = 0
KBY1 142353Z 19002KT 10/M01 A3036 RMK A01 T00971013  RH  046%=      5-min Rain = 0
KBY1 142354Z 19002KT 10/M01 A3036 RMK A01 T00971012  RH  046%=      5-min Rain = 0
KBY1 142355Z 19002KT 10/M01 A3036 RMK A01 T00971012  RH  046%=      5-min Rain = 0
KBY1 142356Z 21001KT 10/M01 A3036 RMK A01 T00981012  RH  046%=      5-min Rain = 0
KBY1 142357Z 21001KT 10/M01 A3036 RMK A01 T00981012  RH  046%=      5-min Rain = 0
KBY1 142358Z 20001KT 10/M01 A3036 RMK A01 T00971013  RH  046%=      5-min Rain = 0
KBY1 142359Z 22001KT 10/M01 A3036 RMK A01 T00951014  RH  046%=      5-min Rain = 0
KBY1 150000Z 23001KT 10/M01 A3036 RMK A01 T00951013  RH  047%=      5-min Rain = 0
KBY1 150001Z 22001KT 09/M01 A3036 RMK A01 T00941013  RH  047%=      5-min Rain = 0
KBY1 150002Z 22001KT 09/M01 A3036 RMK A01 T00931013  RH  047%=      5-min Rain = 0
KBY1 150003Z 23001KT 09/M01 A3036 RMK A01 T00931014  RH  047%=      5-min Rain = 0
KBY1 150004Z 22001KT 09/M01 A3036 RMK A01 T00921014  RH  047%=      5-min Rain = 0
KBY1 150005Z 22001KT 09/M01 A3036 RMK A01 T00911014  RH  048%=      5-min Rain = 0
KBY1 150006Z 22001KT 09/M02 A3036 RMK A01 T00901015  RH  048%=      5-min Rain = 0
KBY1 150007Z 22001KT 09/M02 A3036 RMK A01 T00891015  RH  048%=      5-min Rain = 0
KBY1 150008Z 21001KT 09/M02 A3036 RMK A01 T00891015  RH  048%=      5-min Rain = 0
KBY1 150009Z 23001KT 09/M02 A3036 RMK A01 T00881015  RH  048%=      5-min Rain = 0
KBY1 150010Z 22001KT 09/M02 A3036 RMK A01 T00881015  RH  049%=      5-min Rain = 0
KBY1 150011Z 22001KT 09/M01 A3036 RMK A01 T00871014  RH  049%=      5-min Rain = 0
KBY1 150012Z 22001KT 09/M01 A3036 RMK A01 T00871014  RH  049%=      5-min Rain = 0
KBY1 150013Z 22000KT 09/M02 A3036 RMK A01 T00871015  RH  049%=      5-min Rain = 0
KBY1 150014Z 22001KT 09/M01 A3036 RMK A01 T00861014  RH  049%=      5-min Rain = 0
KBY1 150015Z 21001KT 09/M01 A3036 RMK A01 T00861014  RH  049%=      5-min Rain = 0
KBY1 150016Z 20000KT 09/M01 A3036 RMK A01 T00871014  RH  049%=      5-min Rain = 0
KBY1 150017Z 00000KT 09/M01 A3036 RMK A01 T00871014  RH  049%=      5-min Rain = 0
KBY1 150018Z 00000KT 09/M01 A3037 RMK A01 T00861014  RH  049%=      5-min Rain = 0
KBY1 150019Z 00000KT 09/M01 A3037 RMK A01 T00861014  RH  049%=      5-min Rain = 0
KBY1 150020Z 00000KT 09/M01 A3037 RMK A01 T00871014  RH  049%=      5-min Rain = 0
KBY1 150021Z 00000KT 09/M01 A3037 RMK A01 T00861014  RH  049%=      5-min Rain = 0
KBY1 150022Z 00000KT 09/M02 A3037 RMK A01 T00851018  RH  049%=      5-min Rain = 0
KBY1 150023Z 00000KT 08/M02 A3037 RMK A01 T00801019  RH  049%=      5-min Rain = 0
KBY1 150024Z 00000KT 08/M02 A3037 RMK A01 T00791018  RH  050%=      5-min Rain = 0
KBY1 150025Z 00000KT 08/M02 A3037 RMK A01 T00781017  RH  051%=      5-min Rain = 0
KBY1 150026Z 00000KT 08/M02 A3037 RMK A01 T00771016  RH  052%=      5-min Rain = 0
KBY1 150027Z 00000KT 08/M02 A3037 RMK A01 T00771016  RH  052%=      5-min Rain = 0
KBY1 150028Z 00000KT 08/M02 A3037 RMK A01 T00781016  RH  052%=      5-min Rain = 0
KBY1 150029Z 00000KT 08/M02 A3037 RMK A01 T00781015  RH  052%=      5-min Rain = 0
KBY1 150030Z 00000KT 08/M02 A3037 RMK A01 T00791015  RH  051%=      5-min Rain = 0
KBY1 150031Z 00000KT 08/M02 A3037 RMK A01 T00791015  RH  051%=      5-min Rain = 0
KBY1 150032Z 00000KT 08/M02 A3037 RMK A01 T00791015  RH  051%=      5-min Rain = 0
KBY1 150033Z 00000KT 08/M02 A3037 RMK A01 T00791015  RH  051%=      5-min Rain = 0
KBY1 150034Z 00000KT 08/M02 A3037 RMK A01 T00791016  RH  051%=      5-min Rain = 0
KBY1 150035Z 10000KT 08/M02 A3037 RMK A01 T00791016  RH  051%=      5-min Rain = 0
KBY1 150036Z 08001KT 08/M02 A3037 RMK A01 T00781016  RH  051%=      5-min Rain = 0
KBY1 150037Z 07002KT 08/M02 A3037 RMK A01 T00751019  RH  051%=      5-min Rain = 0
KBY1 150038Z 07003KT 07/M02 A3037 RMK A01 T00721020  RH  052%=      5-min Rain = 0
KBY1 150039Z 08003KT 07/M02 A3037 RMK A01 T00691022  RH  052%=      5-min Rain = 0
KBY1 150040Z 08003KT 07/M02 A3037 RMK A01 T00661022  RH  053%=      5-min Rain = 0
KBY1 150041Z 09003KT 06/M02 A3037 RMK A01 T00641021  RH  054%=      5-min Rain = 0
KBY1 150042Z 09003KT 06/M02 A3037 RMK A01 T00631020  RH  055%=      5-min Rain = 0
KBY1 150043Z 08002KT 06/M02 A3037 RMK A01 T00641019  RH  056%=      5-min Rain = 0
KBY1 150044Z 08002KT 07/M02 A3037 RMK A01 T00661017  RH  056%=      5-min Rain = 0
KBY1 150045Z 08002KT 07/M02 A3037 RMK A01 T00671017  RH  055%=      5-min Rain = 0
KBY1 150046Z 07002KT 07/M02 A3037 RMK A01 T00681017  RH  055%=      5-min Rain = 0
KBY1 150047Z 08002KT 07/M02 A3037 RMK A01 T00691017  RH  054%=      5-min Rain = 0
KBY1 150048Z 08002KT 07/M02 A3037 RMK A01 T00681017  RH  055%=      5-min Rain = 0
KBY1 150049Z 08002KT 07/M02 A3037 RMK A01 T00691015  RH  055%=      5-min Rain = 0
KBY1 150050Z 07002KT 07/M02 A3037 RMK A01 T00711016  RH  054%=      5-min Rain = 0
KBY1 150051Z 07001KT 07/M02 A3038 RMK A01 T00711016  RH  054%=      5-min Rain = 0
KBY1 150052Z 07001KT 07/M02 A3038 RMK A01 T00711017  RH  054%=      5-min Rain = 0
KBY1 150053Z 08001KT 07/M02 A3038 RMK A01 T00701016  RH  054%=      5-min Rain = 0
KBY1 150054Z 06001KT 07/M02 A3038 RMK A01 T00711016  RH  054%=      5-min Rain = 0
KBY1 150055Z 05001KT 07/M02 A3038 RMK A01 T00711017  RH  054%=      5-min Rain = 0
KBY1 150056Z 06001KT 07/M02 A3038 RMK A01 T00701018  RH  054%=      5-min Rain = 0
KBY1 150057Z 07001KT 07/M02 A3038 RMK A01 T00701017  RH  054%=      5-min Rain = 0
KBY1 150058Z 07001KT 07/M02 A3038 RMK A01 T00691017  RH  054%=      5-min Rain = 0
KBY1 150059Z 07001KT 07/M02 A3038 RMK A01 T00691017  RH  054%=      5-min Rain = 0
KBY1 150100Z 07001KT 07/M02 A3038 RMK A01 T00691017  RH  054%=      5-min Rain = 0
KBY1 150101Z 08001KT 07/M02 A3038 RMK A01 T00701017  RH  054%=      5-min Rain = 0
KBY1 150102Z 08001KT 07/M02 A3038 RMK A01 T00701017  RH  054%=      5-min Rain = 0
KBY1 150103Z 08002KT 07/M02 A3038 RMK A01 T00701016  RH  054%=      5-min Rain = 0
KBY1 150104Z 07002KT 07/M02 A3038 RMK A01 T00691016  RH  054%=      5-min Rain = 0
KBY1 150105Z 07002KT 07/M02 A3038 RMK A01 T00691017  RH  054%=      5-min Rain = 0
KBY1 150106Z 07003KT 07/M02 A3038 RMK A01 T00671020  RH  054%=      5-min Rain = 0
KBY1 150107Z 06003KT 07/M02 A3038 RMK A01 T00651021  RH  054%=      5-min Rain = 0
KBY1 150108Z 08001KT 06/M02 A3038 RMK A01 T00621021  RH  055%=      5-min Rain = 0
KBY1 150109Z 08002KT 06/M02 A3038 RMK A01 T00601021  RH  056%=      5-min Rain = 0
KBY1 150110Z 07002KT 06/M02 A3038 RMK A01 T00581021  RH  057%=      5-min Rain = 0
KBY1 150111Z 09002KT 06/M02 A3038 RMK A01 T00581020  RH  057%=      5-min Rain = 0
KBY1 150112Z 11001KT 06/M02 A3038 RMK A01 T00581018  RH  058%=      5-min Rain = 0
KBY1 150113Z 10002KT 06/M02 A3038 RMK A01 T00601018  RH  058%=      5-min Rain = 0
KBY1 150114Z 09003KT 06/M02 A3038 RMK A01 T00601019  RH  057%=      5-min Rain = 0
KBY1 150115Z 09002KT 06/M02 A3038 RMK A01 T00591021  RH  056%=      5-min Rain = 0
KBY1 150116Z 10002KT 06/M02 A3038 RMK A01 T00571022  RH  057%=      5-min Rain = 0
KBY1 150117Z 10003KT 06/M02 A3038 RMK A01 T00551022  RH  058%=      5-min Rain = 0
KBY1 150118Z 11002KT 06/M02 A3038 RMK A01 T00551021  RH  058%=      5-min Rain = 0
KBY1 150119Z 10002KT 05/M02 A3038 RMK A01 T00541021  RH  058%=      5-min Rain = 0
KBY1 150120Z 08002KT 05/M02 A3038 RMK A01 T00531021  RH  059%=      5-min Rain = 0
KBY1 150121Z 07002KT 05/M02 A3038 RMK A01 T00521021  RH  059%=      5-min Rain = 0
KBY1 150122Z 07002KT 05/M02 A3038 RMK A01 T00531020  RH  059%=      5-min Rain = 0
KBY1 150123Z 08002KT 05/M02 A3038 RMK A01 T00541020  RH  059%=      5-min Rain = 0
KBY1 150124Z 09003KT 05/M02 A3038 RMK A01 T00541020  RH  059%=      5-min Rain = 0
KBY1 150125Z 10003KT 05/M02 A3038 RMK A01 T00541021  RH  059%=      5-min Rain = 0
KBY1 150126Z 11003KT 05/M02 A3038 RMK A01 T00521022  RH  059%=      5-min Rain = 0
KBY1 150127Z 12004KT 05/M02 A3038 RMK A01 T00511022  RH  059%=      5-min Rain = 0
KBY1 150128Z 12003KT 05/M02 A3038 RMK A01 T00511022  RH  060%=      5-min Rain = 0
KBY1 150129Z 13003KT 05/M02 A3038 RMK A01 T00511021  RH  060%=      5-min Rain = 0
KBY1 150130Z 12003KT 05/M02 A3038 RMK A01 T00521020  RH  060%=      5-min Rain = 0
KBY1 150131Z 11002KT 05/M02 A3038 RMK A01 T00531020  RH  059%=      5-min Rain = 0
KBY1 150132Z 10003KT 05/M02 A3038 RMK A01 T00531020  RH  059%=      5-min Rain = 0
KBY1 150133Z 10003KT 05/M02 A3038 RMK A01 T00541020  RH  059%=      5-min Rain = 0
KBY1 150134Z 09003KT 06/M02 A3038 RMK A01 T00551020  RH  059%=      5-min Rain = 0
KBY1 150135Z 09002KT 06/M02 A3038 RMK A01 T00561020  RH  058%=      5-min Rain = 0
KBY1 150136Z 07001KT 06/M02 A3038 RMK A01 T00561021  RH  058%=      5-min Rain = 0
KBY1 150137Z 06002KT 06/M02 A3038 RMK A01 T00551021  RH  058%=      5-min Rain = 0
KBY1 150138Z 07001KT 06/M02 A3038 RMK A01 T00551020  RH  059%=      5-min Rain = 0
KBY1 150139Z 06001KT 06/M02 A3038 RMK A01 T00551019  RH  059%=      5-min Rain = 0
KBY1 150140Z 06000KT 06/M02 A3038 RMK A01 T00561019  RH  058%=      5-min Rain = 0
KBY1 150141Z 00000KT 06/M02 A3038 RMK A01 T00561019  RH  058%=      5-min Rain = 0
KBY1 150142Z 00000KT 06/M02 A3038 RMK A01 T00561019  RH  058%=      5-min Rain = 0
KBY1 150143Z 00000KT 06/M02 A3038 RMK A01 T00571019  RH  058%=      5-min Rain = 0
KBY1 150144Z 00000KT 06/M02 A3038 RMK A01 T00571019  RH  058%=      5-min Rain = 0
KBY1 150145Z 00000KT 06/M02 A3038 RMK A01 T00561020  RH  058%=      5-min Rain = 0
KBY1 150146Z 00000KT 06/M02 A3038 RMK A01 T00551021  RH  058%=      5-min Rain = 0
KBY1 150147Z 00000KT 05/M02 A3038 RMK A01 T00531022  RH  058%=      5-min Rain = 0
KBY1 150148Z 00000KT 05/M02 A3038 RMK A01 T00521022  RH  059%=      5-min Rain = 0
KBY1 150149Z 00000KT 05/M02 A3038 RMK A01 T00501022  RH  059%=      5-min Rain = 0
KBY1 150150Z 00000KT 05/M02 A3038 RMK A01 T00491022  RH  060%=      5-min Rain = 0
KBY1 150151Z 06000KT 05/M02 A3038 RMK A01 T00491022  RH  060%=      5-min Rain = 0
KBY1 150152Z 06001KT 05/M02 A3038 RMK A01 T00471023  RH  060%=      5-min Rain = 0
KBY1 150153Z 06001KT 04/M03 A3038 RMK A01 T00431028  RH  060%=      5-min Rain = 0
KBY1 150154Z 06001KT 04/M03 A3038 RMK A01 T00381030  RH  061%=      5-min Rain = 0
KBY1 150155Z 06001KT 04/M03 A3038 RMK A01 T00361028  RH  063%=      5-min Rain = 0
KBY1 150156Z 06001KT 04/M03 A3038 RMK A01 T00351026  RH  064%=      5-min Rain = 0
KBY1 150157Z 07000KT 04/M03 A3038 RMK A01 T00351026  RH  064%=      5-min Rain = 0
KBY1 150158Z 07000KT 04/M02 A3038 RMK A01 T00351024  RH  065%=      5-min Rain = 0
KBY1 150159Z 06001KT 04/M02 A3038 RMK A01 T00351023  RH  066%=      5-min Rain = 0
KBY1 150200Z 07001KT 04/M02 A3038 RMK A01 T00361022  RH  066%=      5-min Rain = 0
KBY1 150201Z 06002KT 04/M02 A3038 RMK A01 T00381021  RH  065%=      5-min Rain = 0
KBY1 150202Z 06002KT 04/M02 A3038 RMK A01 T00391022  RH  064%=      5-min Rain = 0
KBY1 150203Z 06002KT 04/M02 A3038 RMK A01 T00391023  RH  064%=      5-min Rain = 0
KBY1 150204Z 06002KT 04/M02 A3038 RMK A01 T00391023  RH  064%=      5-min Rain = 0
KBY1 150205Z 06002KT 04/M02 A3038 RMK A01 T00391024  RH  064%=      5-min Rain = 0
KBY1 150206Z 07002KT 04/M02 A3038 RMK A01 T00381024  RH  064%=      5-min Rain = 0
KBY1 150207Z 07002KT 04/M02 A3038 RMK A01 T00381023  RH  065%=      5-min Rain = 0
KBY1 150208Z 07002KT 04/M02 A3038 RMK A01 T00401021  RH  065%=      5-min Rain = 0
KBY1 150209Z 08003KT 04/M02 A3038 RMK A01 T00431020  RH  064%=      5-min Rain = 0
KBY1 150210Z 07002KT 04/M02 A3038 RMK A01 T00441021  RH  063%=      5-min Rain = 0
KBY1 150211Z 08002KT 05/M02 A3038 RMK A01 T00451022  RH  062%=      5-min Rain = 0
KBY1 150212Z 07002KT 05/M02 A3038 RMK A01 T00451021  RH  062%=      5-min Rain = 0
KBY1 150213Z 06002KT 05/M02 A3038 RMK A01 T00451022  RH  062%=      5-min Rain = 0
KBY1 150214Z 06002KT 05/M02 A3038 RMK A01 T00451022  RH  062%=      5-min Rain = 0
KBY1 150215Z 06002KT 05/M02 A3038 RMK A01 T00461022  RH  062%=      5-min Rain = 0
KBY1 150216Z 07002KT 05/M02 A3038 RMK A01 T00471021  RH  062%=      5-min Rain = 0
KBY1 150217Z 07001KT 05/M02 A3038 RMK A01 T00471022  RH  061%=      5-min Rain = 0
KBY1 150218Z 08001KT 05/M02 A3039 RMK A01 T00471022  RH  061%=      5-min Rain = 0
KBY1 150219Z 07000KT 05/M02 A3039 RMK A01 T00471022  RH  061%=      5-min Rain = 0
KBY1 150220Z 00000KT 05/M02 A3039 RMK A01 T00471022  RH  061%=      5-min Rain = 0
KBY1 150221Z 00000KT 05/M02 A3039 RMK A01 T00471021  RH  061%=      5-min Rain = 0
KBY1 150222Z 00000KT 05/M02 A3039 RMK A01 T00471022  RH  061%=      5-min Rain = 0
KBY1 150223Z 10000KT 05/M02 A3039 RMK A01 T00471022  RH  061%=      5-min Rain = 0
KBY1 150224Z 11000KT 05/M02 A3039 RMK A01 T00471023  RH  061%=      5-min Rain = 0
KBY1 150225Z 10000KT 05/M02 A3039 RMK A01 T00461023  RH  061%=      5-min Rain = 0
KBY1 150226Z 07000KT 05/M02 A3039 RMK A01 T00461023  RH  061%=      5-min Rain = 0
KBY1 150227Z 06001KT 05/M02 A3039 RMK A01 T00451023  RH  061%=      5-min Rain = 0
KBY1 150228Z 07001KT 04/M02 A3039 RMK A01 T00441024  RH  061%=      5-min Rain = 0
KBY1 150229Z 07001KT 04/M02 A3039 RMK A01 T00431024  RH  062%=      5-min Rain = 0
KBY1 150230Z 06001KT 04/M02 A3039 RMK A01 T00431023  RH  062%=      5-min Rain = 0
KBY1 150231Z 07001KT 04/M02 A3039 RMK A01 T00431024  RH  062%=      5-min Rain = 0
KBY1 150232Z 08001KT 04/M02 A3039 RMK A01 T00421024  RH  062%=      5-min Rain = 0
KBY1 150233Z 06002KT 04/M02 A3039 RMK A01 T00431022  RH  063%=      5-min Rain = 0
KBY1 150234Z 06002KT 04/M02 A3039 RMK A01 T00441022  RH  062%=      5-min Rain = 0
KBY1 150235Z 05002KT 05/M02 A3039 RMK A01 T00451023  RH  062%=      5-min Rain = 0
KBY1 150236Z 06001KT 05/M02 A3039 RMK A01 T00451022  RH  062%=      5-min Rain = 0
KBY1 150237Z 06001KT 05/M02 A3039 RMK A01 T00451023  RH  062%=      5-min Rain = 0
KBY1 150238Z 05001KT 04/M02 A3039 RMK A01 T00441022  RH  062%=      5-min Rain = 0
KBY1 150239Z 04001KT 04/M02 A3039 RMK A01 T00441022  RH  062%=      5-min Rain = 0
KBY1 150240Z 04001KT 05/M02 A3039 RMK A01 T00451021  RH  062%=      5-min Rain = 0
KBY1 150241Z 06001KT 05/M02 A3039 RMK A01 T00461022  RH  062%=      5-min Rain = 0
KBY1 150242Z 05001KT 05/M02 A3039 RMK A01 T00471021  RH  062%=      5-min Rain = 0
KBY1 150243Z 05001KT 05/M02 A3039 RMK A01 T00471022  RH  061%=      5-min Rain = 0
KBY1 150244Z 06001KT 05/M02 A3039 RMK A01 T00461022  RH  061%=      5-min Rain = 0
KBY1 150245Z 07001KT 05/M02 A3039 RMK A01 T00461022  RH  062%=      5-min Rain = 0
KBY1 150246Z 07001KT 05/M02 A3039 RMK A01 T00461022  RH  062%=      5-min Rain = 0
KBY1 150247Z 07002KT 05/M02 A3039 RMK A01 T00451022  RH  062%=      5-min Rain = 0
KBY1 150248Z 06001KT 04/M03 A3039 RMK A01 T00431025  RH  061%=      5-min Rain = 0
KBY1 150249Z 03000KT 04/M03 A3039 RMK A01 T00401027  RH  061%=      5-min Rain = 0
KBY1 150250Z 35001KT 04/M03 A3039 RMK A01 T00391025  RH  063%=      5-min Rain = 0
KBY1 150251Z 35001KT 04/M02 A3039 RMK A01 T00381023  RH  064%=      5-min Rain = 0
KBY1 150252Z 36001KT 04/M02 A3039 RMK A01 T00381023  RH  064%=      5-min Rain = 0
KBY1 150253Z 02001KT 04/M02 A3039 RMK A01 T00381023  RH  064%=      5-min Rain = 0
KBY1 150254Z 03002KT 04/M02 A3039 RMK A01 T00391022  RH  064%=      5-min Rain = 0
KBY1 150255Z 05002KT 04/M02 A3039 RMK A01 T00411021  RH  064%=      5-min Rain = 0
KBY1 150256Z 05002KT 04/M02 A3039 RMK A01 T00421021  RH  064%=      5-min Rain = 0
KBY1 150257Z 05002KT 04/M02 A3039 RMK A01 T00421022  RH  063%=      5-min Rain = 0
KBY1 150258Z 05002KT 04/M02 A3039 RMK A01 T00411024  RH  062%=      5-min Rain = 0
KBY1 150259Z 04002KT 04/M03 A3039 RMK A01 T00381029  RH  062%=      5-min Rain = 0
KBY1 150300Z 04002KT 04/M03 A3039 RMK A01 T00361026  RH  064%=      5-min Rain = 0
KBY1 150301Z 03002KT 04/M02 A3039 RMK A01 T00351023  RH  066%=      5-min Rain = 0
KBY1 150302Z 03001KT 04/M02 A3039 RMK A01 T00371021  RH  066%=      5-min Rain = 0
KBY1 150303Z 03002KT 04/M02 A3039 RMK A01 T00381022  RH  065%=      5-min Rain = 0
KBY1 150304Z 04002KT 04/M02 A3039 RMK A01 T00391022  RH  065%=      5-min Rain = 0
KBY1 150305Z 04002KT 04/M02 A3039 RMK A01 T00401022  RH  064%=      5-min Rain = 0
KBY1 150306Z 03002KT 04/M02 A3039 RMK A01 T00411022  RH  064%=      5-min Rain = 0
KBY1 150307Z 03002KT 04/M02 A3039 RMK A01 T00411022  RH  064%=      5-min Rain = 0
KBY1 150308Z 04002KT 04/M02 A304 RMK A01 T00411022  RH  064%=      5-min Rain = 0
KBY1 150309Z 04002KT 04/M02 A304 RMK A01 T00411022  RH  064%=      5-min Rain = 0
KBY1 150310Z 03002KT 04/M02 A304 RMK A01 T00401022  RH  064%=      5-min Rain = 0
KBY1 150311Z 03002KT 04/M02 A304 RMK A01 T00401022  RH  064%=      5-min Rain = 0
KBY1 150312Z 04002KT 04/M02 A304 RMK A01 T00401022  RH  064%=      5-min Rain = 0
KBY1 150313Z 04002KT 04/M03 A304 RMK A01 T00371027  RH  063%=      5-min Rain = 0
KBY1 150314Z 04002KT 03/M03 A304 RMK A01 T00341027  RH  064%=      5-min Rain = 0
KBY1 150315Z 03002KT 03/M02 A304 RMK A01 T00331024  RH  066%=      5-min Rain = 0
KBY1 150316Z 04002KT 03/M02 A304 RMK A01 T00341024  RH  066%=      5-min Rain = 0
KBY1 150317Z 03001KT 03/M03 A304 RMK A01 T00331026  RH  065%=      5-min Rain = 0
KBY1 150318Z 04001KT 03/M03 A304 RMK A01 T00321025  RH  066%=      5-min Rain = 0
KBY1 150319Z 05002KT 03/M02 A304 RMK A01 T00311024  RH  067%=      5-min Rain = 0
KBY1 150320Z 04002KT 03/M02 A304 RMK A01 T00321023  RH  067%=      5-min Rain = 0
KBY1 150321Z 04002KT 03/M03 A304 RMK A01 T00321025  RH  066%=      5-min Rain = 0
KBY1 150322Z 04002KT 03/M03 A304 RMK A01 T00311025  RH  067%=      5-min Rain = 0
KBY1 150323Z 04002KT 03/M02 A304 RMK A01 T00311023  RH  068%=      5-min Rain = 0
KBY1 150324Z 03001KT 03/M02 A304 RMK A01 T00321023  RH  068%=      5-min Rain = 0
KBY1 150325Z 03001KT 03/M03 A304 RMK A01 T00301029  RH  065%=      5-min Rain = 0
KBY1 150326Z 03002KT 03/M03 A304 RMK A01 T00251030  RH  067%=      5-min Rain = 0
KBY1 150327Z 04001KT 03/M02 A304 RMK A01 T00261024  RH  070%=      5-min Rain = 0
KBY1 150328Z 03002KT 03/M02 A304 RMK A01 T00311019  RH  070%=      5-min Rain = 0
KBY1 150329Z 03002KT 04/M02 A304 RMK A01 T00351018  RH  068%=      5-min Rain = 0
KBY1 150330Z 04002KT 04/M02 A304 RMK A01 T00361021  RH  066%=      5-min Rain = 0
KBY1 150331Z 04002KT 04/M02 A304 RMK A01 T00351024  RH  065%=      5-min Rain = 0
KBY1 150332Z 04002KT 03/M03 A304 RMK A01 T00311029  RH  064%=      5-min Rain = 0
KBY1 150333Z 04002KT 03/M03 A304 RMK A01 T00271029  RH  066%=      5-min Rain = 0
KBY1 150334Z 05002KT 03/M03 A304 RMK A01 T00251027  RH  068%=      5-min Rain = 0
KBY1 150335Z 04001KT 03/M03 A304 RMK A01 T00251026  RH  069%=      5-min Rain = 0
KBY1 150336Z 04002KT 03/M03 A304 RMK A01 T00251025  RH  070%=      5-min Rain = 0
KBY1 150337Z 03002KT 03/M02 A304 RMK A01 T00271021  RH  070%=      5-min Rain = 0
KBY1 150338Z 03002KT 03/M02 A304 RMK A01 T00301021  RH  069%=      5-min Rain = 0
KBY1 150339Z 04000KT 03/M02 A304 RMK A01 T00301023  RH  068%=      5-min Rain = 0
KBY1 150340Z 03000KT 03/M03 A304 RMK A01 T00281027  RH  067%=      5-min Rain = 0
KBY1 150341Z 04001KT 03/M03 A304 RMK A01 T00251029  RH  068%=      5-min Rain = 0
KBY1 150342Z 04002KT 02/M03 A304 RMK A01 T00231027  RH  069%=      5-min Rain = 0
KBY1 150343Z 03001KT 03/M02 A304 RMK A01 T00261022  RH  071%=      5-min Rain = 0
KBY1 150344Z 02001KT 03/M02 A304 RMK A01 T00261024  RH  070%=      5-min Rain = 0
KBY1 150345Z 02002KT 03/M02 A304 RMK A01 T00271023  RH  070%=      5-min Rain = 0
KBY1 150346Z 03001KT 03/M02 A304 RMK A01 T00281021  RH  070%=      5-min Rain = 0
KBY1 150347Z 02002KT 03/M02 A304 RMK A01 T00301021  RH  069%=      5-min Rain = 0
KBY1 150348Z 02002KT 03/M02 A304 RMK A01 T00311023  RH  068%=      5-min Rain = 0
KBY1 150349Z 02002KT 03/M02 A304 RMK A01 T00301024  RH  068%=      5-min Rain = 0
KBY1 150350Z 02002KT 03/M03 A304 RMK A01 T00271026  RH  068%=      5-min Rain = 0
KBY1 150351Z 01001KT 03/M02 A304 RMK A01 T00261024  RH  069%=      5-min Rain = 0
KBY1 150352Z 36001KT 03/M02 A304 RMK A01 T00271023  RH  070%=      5-min Rain = 0
KBY1 150353Z 01001KT 03/M02 A304 RMK A01 T00291020  RH  070%=      5-min Rain = 0
KBY1 150354Z 01001KT 03/M02 A304 RMK A01 T00321020  RH  069%=      5-min Rain = 0
KBY1 150355Z 03001KT 03/M02 A304 RMK A01 T00321022  RH  068%=      5-min Rain = 0
KBY1 150356Z 02001KT 03/M02 A304 RMK A01 T00321022  RH  067%=      5-min Rain = 0
KBY1 150357Z 02001KT 03/M02 A304 RMK A01 T00321023  RH  067%=      5-min Rain = 0
KBY1 150358Z 01001KT 03/M02 A304 RMK A01 T00311024  RH  067%=      5-min Rain = 0
KBY1 150359Z 03001KT 03/M03 A304 RMK A01 T00281026  RH  067%=      5-min Rain = 0
KBY1 150400Z 03001KT 03/M03 A304 RMK A01 T00261027  RH  068%=      5-min Rain = 0
KBY1 150401Z 03001KT 02/M03 A304 RMK A01 T00221032  RH  067%=      5-min Rain = 0
KBY1 150402Z 03002KT 02/M03 A304 RMK A01 T00201034  RH  068%=      5-min Rain = 0
KBY1 150403Z 04002KT 02/M03 A304 RMK A01 T00161034  RH  069%=      5-min Rain = 0
KBY1 150404Z 05002KT 01/M03 A304 RMK A01 T00131033  RH  071%=      5-min Rain = 0
KBY1 150405Z 05003KT 01/M03 A304 RMK A01 T00111033  RH  073%=      5-min Rain = 0
KBY1 150406Z 04002KT 01/M03 A304 RMK A01 T00091032  RH  074%=      5-min Rain = 0
KBY1 150407Z 03001KT 01/M04 A304 RMK A01 T00081035  RH  073%=      5-min Rain = 0
KBY1 150408Z 03001KT 01/M04 A304 RMK A01 T00051035  RH  074%=      5-min Rain = 0
KBY1 150409Z 02002KT 01/M03 A304 RMK A01 T00071027  RH  078%=      5-min Rain = 0
KBY1 150410Z 02001KT 01/M02 A304 RMK A01 T00131023  RH  077%=      5-min Rain = 0
KBY1 150411Z 03001KT 01/M03 A304 RMK A01 T00121032  RH  072%=      5-min Rain = 0
KBY1 150412Z 04002KT 01/M04 A304 RMK A01 T00071037  RH  072%=      5-min Rain = 0
KBY1 150413Z 03003KT 01/M04 A304 RMK A01 T00051035  RH  074%=      5-min Rain = 0
KBY1 150414Z 03001KT 00/M03 A304 RMK A01 T00041034  RH  076%=      5-min Rain = 0
KBY1 150415Z 00000KT 00/M04 A304 RMK A01 T00011037  RH  075%=      5-min Rain = 0
KBY1 150416Z 04001KT 00/03 A304 RMK A01 T00-00-34  RH  078%=      5-min Rain = 0
KBY1 150417Z 04001KT 00/M03 A304 RMK A01 T00021029  RH  080%=      5-min Rain = 0
KBY1 150418Z 04001KT 01/M03 A304 RMK A01 T00051026  RH  080%=      5-min Rain = 0
KBY1 150419Z 02001KT 01/M03 A304 RMK A01 T00081025  RH  079%=      5-min Rain = 0
KBY1 150420Z 02001KT 01/M03 A304 RMK A01 T00091026  RH  077%=      5-min Rain = 0
KBY1 150421Z 03001KT 01/M03 A304 RMK A01 T00111025  RH  077%=      5-min Rain = 0
KBY1 150422Z 03001KT 01/M02 A304 RMK A01 T00141021  RH  077%=      5-min Rain = 0
KBY1 150423Z 03002KT 02/M03 A304 RMK A01 T00151030  RH  072%=      5-min Rain = 0
KBY1 150424Z 04002KT 01/M04 A304 RMK A01 T00111035  RH  071%=      5-min Rain = 0
KBY1 150425Z 04002KT 01/M03 A304 RMK A01 T00101034  RH  073%=      5-min Rain = 0
KBY1 150426Z 04002KT 01/M03 A304 RMK A01 T00091033  RH  073%=      5-min Rain = 0
KBY1 150427Z 04002KT 01/M03 A304 RMK A01 T00081033  RH  074%=      5-min Rain = 0
KBY1 150428Z 05003KT 01/M03 A304 RMK A01 T00071033  RH  075%=      5-min Rain = 0
KBY1 150429Z 07001KT 00/M04 A304 RMK A01 T00041038  RH  073%=      5-min Rain = 0
KBY1 150430Z 05001KT 00/04 A304 RMK A01 T00000-40  RH  074%=      5-min Rain = 0
KBY1 150431Z 03002KT M00/M04 A304 RMK A01 T10021042  RH  075%=      5-min Rain = 0
KBY1 150432Z 02001KT M00/M04 A304 RMK A01 T10031041  RH  076%=      5-min Rain = 0
KBY1 150433Z 00000KT M01/M04 A304 RMK A01 T10061043  RH  076%=      5-min Rain = 0
KBY1 150434Z 04000KT M01/M04 A304 RMK A01 T10061039  RH  079%=      5-min Rain = 0
KBY1 150435Z 03000KT M01/M04 A304 RMK A01 T10071040  RH  078%=      5-min Rain = 0
KBY1 150436Z 02000KT M01/M04 A304 RMK A01 T10071038  RH  080%=      5-min Rain = 0
KBY1 150437Z 00000KT M01/M04 A304 RMK A01 T10061037  RH  080%=      5-min Rain = 0
KBY1 150438Z 02000KT M01/M04 A304 RMK A01 T10061036  RH  080%=      5-min Rain = 0
KBY1 150439Z 02000KT M00/M03 A304 RMK A01 T10041032  RH  081%=      5-min Rain = 0
KBY1 150440Z 06000KT M00/M03 A304 RMK A01 T10021032  RH  080%=      5-min Rain = 0
KBY1 150441Z 00000KT M00/M03 A304 RMK A01 T10021034  RH  079%=      5-min Rain = 0
KBY1 150442Z 00000KT M00/M04 A304 RMK A01 T10031037  RH  078%=      5-min Rain = 0
KBY1 150443Z 00000KT M00/M04 A304 RMK A01 T10041038  RH  078%=      5-min Rain = 0
KBY1 150444Z 00000KT M01/M04 A304 RMK A01 T10051038  RH  079%=      5-min Rain = 0
KBY1 150445Z 00000KT M01/M04 A304 RMK A01 T10081042  RH  077%=      5-min Rain = 0
KBY1 150446Z 00000KT M01/M05 A304 RMK A01 T10101045  RH  077%=      5-min Rain = 0
KBY1 150447Z 00000KT M01/M05 A304 RMK A01 T10141049  RH  077%=      5-min Rain = 0
KBY1 150448Z 00000KT M02/M05 A304 RMK A01 T10171050  RH  078%=      5-min Rain = 0
KBY1 150449Z 00000KT M02/M05 A304 RMK A01 T10191050  RH  079%=      5-min Rain = 0
KBY1 150450Z 00000KT M02/M05 A304 RMK A01 T10211051  RH  080%=      5-min Rain = 0
KBY1 150451Z 00000KT M02/M05 A304 RMK A01 T10221052  RH  080%=      5-min Rain = 0
KBY1 150452Z 00000KT M02/M05 A304 RMK A01 T10231051  RH  081%=      5-min Rain = 0
KBY1 150453Z 00000KT M02/M05 A304 RMK A01 T10231049  RH  083%=      5-min Rain = 0
KBY1 150454Z 00000KT M02/M05 A304 RMK A01 T10221045  RH  084%=      5-min Rain = 0
KBY1 150455Z 00000KT M02/M04 A304 RMK A01 T10211043  RH  085%=      5-min Rain = 0
KBY1 150456Z 00000KT M02/M04 A304 RMK A01 T10211044  RH  085%=      5-min Rain = 0
KBY1 150457Z 00000KT M02/M04 A304 RMK A01 T10211043  RH  085%=      5-min Rain = 0
KBY1 150458Z 00000KT M02/M04 A304 RMK A01 T10201043  RH  085%=      5-min Rain = 0
KBY1 150459Z 00000KT M02/M04 A304 RMK A01 T10201042  RH  085%=      5-min Rain = 0
KBY1 150500Z 00000KT M02/M04 A304 RMK A01 T10181041  RH  085%=      5-min Rain = 0
KBY1 150501Z 00000KT M02/M04 A304 RMK A01 T10171039  RH  085%=      5-min Rain = 0
KBY1 150502Z 00000KT M02/M04 A304 RMK A01 T10171041  RH  084%=      5-min Rain = 0
KBY1 150503Z 00000KT M02/M04 A304 RMK A01 T10181042  RH  084%=      5-min Rain = 0
KBY1 150504Z 00000KT M02/M04 A304 RMK A01 T10181043  RH  083%=      5-min Rain = 0
KBY1 150505Z 00000KT M02/M05 A304 RMK A01 T10201046  RH  082%=      5-min Rain = 0
KBY1 150506Z 00000KT M02/M05 A304 RMK A01 T10231051  RH  081%=      5-min Rain = 0
KBY1 150507Z 00000KT M02/M05 A304 RMK A01 T10241052  RH  081%=      5-min Rain = 0
KBY1 150508Z 00000KT M03/M05 A304 RMK A01 T10251051  RH  083%=      5-min Rain = 0
KBY1 150509Z 00000KT M03/M05 A304 RMK A01 T10261050  RH  083%=      5-min Rain = 0
KBY1 150510Z 00000KT M03/M05 A304 RMK A01 T10261050  RH  084%=      5-min Rain = 0
KBY1 150511Z 00000KT M03/M05 A304 RMK A01 T10261049  RH  084%=      5-min Rain = 0
KBY1 150512Z 00000KT M03/M05 A304 RMK A01 T10251046  RH  086%=      5-min Rain = 0
KBY1 150513Z 00000KT M02/M04 A304 RMK A01 T10231043  RH  087%=      5-min Rain = 0
KBY1 150514Z 00000KT M02/M04 A304 RMK A01 T10221042  RH  086%=      5-min Rain = 0
KBY1 150515Z 00000KT M02/M04 A304 RMK A01 T10211041  RH  087%=      5-min Rain = 0
KBY1 150516Z 00000KT M02/M04 A304 RMK A01 T10201039  RH  087%=      5-min Rain = 0
KBY1 150517Z 00000KT M02/M04 A304 RMK A01 T10201039  RH  086%=      5-min Rain = 0
KBY1 150518Z 00000KT M02/M04 A304 RMK A01 T10201040  RH  086%=      5-min Rain = 0
KBY1 150519Z 00000KT M02/M04 A304 RMK A01 T10201041  RH  086%=      5-min Rain = 0
KBY1 150520Z 00000KT M02/M04 A304 RMK A01 T10201041  RH  086%=      5-min Rain = 0
KBY1 150521Z 00000KT M02/M04 A304 RMK A01 T10201041  RH  086%=      5-min Rain = 0
KBY1 150522Z 00000KT M02/M04 A304 RMK A01 T10191040  RH  086%=      5-min Rain = 0
KBY1 150523Z 00000KT M02/M04 A304 RMK A01 T10181039  RH  086%=      5-min Rain = 0
KBY1 150524Z 00000KT M02/M04 A304 RMK A01 T10171038  RH  086%=      5-min Rain = 0
KBY1 150525Z 00000KT M02/M04 A304 RMK A01 T10161037  RH  086%=      5-min Rain = 0
KBY1 150526Z 00000KT M02/M04 A304 RMK A01 T10161037  RH  086%=      5-min Rain = 0
KBY1 150527Z 00000KT M02/M04 A304 RMK A01 T10151036  RH  086%=      5-min Rain = 0
KBY1 150528Z 00000KT M01/M04 A304 RMK A01 T10141035  RH  086%=      5-min Rain = 0
KBY1 150529Z 00000KT M01/M03 A304 RMK A01 T10121033  RH  086%=      5-min Rain = 0
KBY1 150530Z 00000KT M01/M03 A304 RMK A01 T10101031  RH  086%=      5-min Rain = 0
KBY1 150531Z 00000KT M01/M03 A304 RMK A01 T10091031  RH  085%=      5-min Rain = 0
KBY1 150532Z 00000KT M01/M03 A304 RMK A01 T10081031  RH  085%=      5-min Rain = 0
KBY1 150533Z 00000KT M01/M03 A304 RMK A01 T10081031  RH  084%=      5-min Rain = 0
KBY1 150534Z 00000KT M01/M03 A304 RMK A01 T10071032  RH  084%=      5-min Rain = 0
KBY1 150535Z 00000KT M01/M03 A304 RMK A01 T10071033  RH  083%=      5-min Rain = 0
KBY1 150536Z 00000KT M01/M03 A304 RMK A01 T10081034  RH  083%=      5-min Rain = 0
KBY1 150537Z 18000KT M01/M04 A304 RMK A01 T10091037  RH  081%=      5-min Rain = 0
KBY1 150538Z 18000KT M01/M04 A304 RMK A01 T10111041  RH  080%=      5-min Rain = 0
KBY1 150539Z 00000KT M01/M04 A304 RMK A01 T10121043  RH  079%=      5-min Rain = 0
KBY1 150540Z 00000KT M02/M05 A304 RMK A01 T10151046  RH  079%=      5-min Rain = 0
KBY1 150541Z 18000KT M02/M05 A304 RMK A01 T10161046  RH  080%=      5-min Rain = 0
KBY1 150542Z 00000KT M02/M04 A304 RMK A01 T10161044  RH  081%=      5-min Rain = 0
KBY1 150543Z 00000KT M02/M04 A304 RMK A01 T10171043  RH  082%=      5-min Rain = 0
KBY1 150544Z 00000KT M02/M05 A304 RMK A01 T10191045  RH  082%=      5-min Rain = 0
KBY1 150545Z 19000KT M02/M05 A304 RMK A01 T10211047  RH  083%=      5-min Rain = 0
KBY1 150546Z 19000KT M02/M05 A304 RMK A01 T10211046  RH  083%=      5-min Rain = 0
KBY1 150547Z 00000KT M02/M05 A304 RMK A01 T10221045  RH  084%=      5-min Rain = 0
KBY1 150548Z 00000KT M02/M04 A304 RMK A01 T10221044  RH  085%=      5-min Rain = 0
KBY1 150549Z 24001KT M02/M04 A304 RMK A01 T10201041  RH  086%=      5-min Rain = 0
KBY1 150550Z 24000KT M02/M04 A304 RMK A01 T10191039  RH  086%=      5-min Rain = 0
KBY1 150551Z 00000KT M02/M04 A304 RMK A01 T10191039  RH  086%=      5-min Rain = 0
KBY1 150552Z 00000KT M02/M04 A304 RMK A01 T10181037  RH  087%=      5-min Rain = 0
KBY1 150553Z 00000KT M02/M04 A304 RMK A01 T10171036  RH  087%=      5-min Rain = 0
KBY1 150554Z 00000KT M02/M04 A304 RMK A01 T10181041  RH  085%=      5-min Rain = 0
KBY1 150555Z 00000KT M02/M04 A304 RMK A01 T10201043  RH  084%=      5-min Rain = 0
KBY1 150556Z 00000KT M02/M05 A304 RMK A01 T10211045  RH  084%=      5-min Rain = 0
KBY1 150557Z 00000KT M02/M04 A304 RMK A01 T10211043  RH  085%=      5-min Rain = 0
KBY1 150558Z 00000KT M02/M04 A304 RMK A01 T10211042  RH  086%=      5-min Rain = 0
KBY1 150559Z 00000KT M02/M04 A304 RMK A01 T10211042  RH  086%=      5-min Rain = 0

Page generated in 0.1314 seconds.